Boston Pilot Mystic — VHF20 — position and weather

sailwx.info

Track history (hours):
 
Tides and Currents Weather Stations Pressure Air Temp Water Temp Dewpoint Dewpoint Depression Visibility Wind Speed Wind Dir Waves Ship Positions

Boston Pilot Mystic

Last reported at 2017-Sep-26 18:30 UTC. Time now 2017-Sep-26 18:32 UTC.
Position N 42°22' W 071°02'.

Length 16 m; draft 1.5 m.

Type: Pilot. MMSI: 367029020.

Date/timePositionNaut miles runAvg speedWind from/ knotsBaromVisibWave heightAir tempDewpointWater temp
2017-Sep-26 18:30N 42°22' W 071°02'67727.5
2017-Sep-26 18:30N 42°25' W 070°54'3 7.0
2017-Sep-26 18:00N 42°24' W 070°50'92221.3
2017-Sep-26 18:00N 42°22' W 071°02'4 8.4
2017-Sep-26 17:31N 42°21' W 070°56'4941.4
2017-Sep-26 17:30N 42°22' W 071°02'0 0.1
2017-Sep-26 17:00N 42°22' W 071°02'0154.5
2017-Sep-26 17:00N 42°22' W 071°02'0 0.0
2017-Sep-26 16:31N 42°22' W 071°02'0 4.5
2017-Sep-26 16:30N 42°22' W 071°02'0 0.0
2017-Sep-26 16:01N 42°22' W 071°02'0 1.0
2017-Sep-26 16:00N 42°22' W 071°02'0 0.0
2017-Sep-26 15:30N 42°22' W 071°02'2 3.8
2017-Sep-26 15:01N 42°21' W 070°60'21122.0
2017-Sep-26 15:00N 42°22' W 071°02'1 2.3
2017-Sep-26 14:30N 42°21' W 071°02'1 2.4
2017-Sep-26 14:00N 42°22' W 071°02'016.0
2017-Sep-26 14:00N 42°22' W 071°02'0 0.0
2017-Sep-26 13:31N 42°22' W 071°02'0 5.4
2017-Sep-26 13:30N 42°22' W 071°02'4 7.2
2017-Sep-26 13:01N 42°20' W 070°57'42158.1
2017-Sep-26 13:00N 42°22' W 071°02'917.2
2017-Sep-26 12:30N 42°23' W 070°50'96163.0
2017-Sep-26 12:30N 42°22' W 071°02'918.2
2017-Sep-26 12:00N 42°23' W 070°50'91492.1
2017-Sep-26 12:00N 42°22' W 071°02'4 8.9
2017-Sep-26 11:30N 42°21' W 070°56'415759.0
2017-Sep-26 11:30N 42°22' W 071°02'1 2.4
2017-Sep-26 11:00N 42°21' W 071°02'1328.6
2017-Sep-26 11:00N 42°22' W 071°02'1 2.4
2017-Sep-26 10:30N 42°21' W 071°02'12146.1
2017-Sep-26 10:30N 42°22' W 071°02'5 9.1
2017-Sep-26 10:00N 42°21' W 070°56'51263.2
2017-Sep-26 10:00N 42°22' W 071°02'0 0.0
2017-Sep-26 09:30N 42°22' W 071°02'5 9.6
2017-Sep-26 09:01N 42°22' W 070°55'5958.6
2017-Sep-26 09:00N 42°22' W 071°02'0 0.0
2017-Sep-26 08:30N 42°22' W 071°02'021.6
2017-Sep-26 08:30N 42°22' W 071°02'0 0.0
2017-Sep-26 08:00N 42°22' W 071°02'0 7.2
2017-Sep-26 08:00N 42°22' W 071°02'0 0.0
2017-Sep-26 07:30N 42°22' W 071°02'013.0
2017-Sep-26 07:30N 42°22' W 071°02'0 0.0
2017-Sep-26 07:00N 42°22' W 071°02'021.6
2017-Sep-26 07:00N 42°22' W 071°02'0 0.0
2017-Sep-26 06:30N 42°22' W 071°02'014.4
2017-Sep-26 06:30N 42°22' W 071°02'0 0.0
2017-Sep-26 06:00N 42°22' W 071°02'032.4
2017-Sep-26 06:00N 42°22' W 071°02'0 0.0
2017-Sep-26 05:30N 42°22' W 071°02'032.4
2017-Sep-26 05:30N 42°22' W 071°02'0 0.0
2017-Sep-26 05:00N 42°22' W 071°02'021.6
2017-Sep-26 05:00N 42°22' W 071°02'0 0.0
2017-Sep-26 04:30N 42°22' W 071°02'032.4
2017-Sep-26 04:30N 42°22' W 071°02'0 0.0
2017-Sep-26 04:00N 42°22' W 071°02'014.4
2017-Sep-26 04:00N 42°22' W 071°02'0 0.0
2017-Sep-26 03:30N 42°22' W 071°02'0 8.1
2017-Sep-26 03:30N 42°22' W 071°02'0 0.0
2017-Sep-26 03:00N 42°22' W 071°02'014.4
2017-Sep-26 03:00N 42°22' W 071°02'0 0.0
2017-Sep-26 02:27N 42°22' W 071°02'0 0.2
2017-Sep-26 02:21N 42°22' W 071°02'0 0.0
2017-Sep-26 02:00N 42°22' W 071°02'0 5.4
2017-Sep-26 02:00N 42°22' W 071°02'0 0.0
2017-Sep-26 01:30N 42°22' W 071°02'064.8
2017-Sep-26 01:30N 42°22' W 071°02'1 1.5
2017-Sep-26 01:01N 42°21' W 071°01'1534.9
2017-Sep-26 01:00N 42°22' W 071°02'0 0.0
2017-Sep-26 00:30N 42°22' W 071°02'547.7
2017-Sep-26 00:24N 42°22' W 070°55'410.5
2017-Sep-26 00:00N 42°21' W 071°01'12057.5
2017-Sep-26 00:00N 42°22' W 071°02'0 0.0
2017-Sep-25 23:30N 42°22' W 071°02'0 3.6
2017-Sep-25 23:30N 42°22' W 071°02'0 0.5
2017-Sep-25 23:01N 42°21' W 071°02'0134.0
2017-Sep-25 23:00N 42°22' W 071°02'5 9.7
2017-Sep-25 22:31N 42°21' W 070°55'51926.0
2017-Sep-25 22:30N 42°22' W 071°02'611.9
2017-Sep-25 22:00N 42°23' W 070°54'6892.7
2017-Sep-25 22:00N 42°22' W 071°02'5 9.4
2017-Sep-25 21:31N 42°22' W 070°56'51858.5
2017-Sep-25 21:30N 42°22' W 071°02'2 4.4
2017-Sep-25 21:01N 42°20' W 070°60'21133.5
2017-Sep-25 21:00N 42°22' W 071°02'0 0.0
2017-Sep-25 20:30N 42°22' W 071°02'013.4
2017-Sep-25 20:30N 42°22' W 071°02'0 0.0
2017-Sep-25 20:01N 42°22' W 071°02'0 3.8
2017-Sep-25 20:00N 42°22' W 071°02'1 1.1
2017-Sep-25 19:30N 42°21' W 071°02'1663.9
2017-Sep-25 19:30N 42°22' W 071°02'612.0
2017-Sep-25 19:00N 42°22' W 070°54'65392.7
2017-Sep-25 19:00N 42°22' W 071°02'4 8.8
2017-Sep-25 18:30N 42°21' W 070°56'43163.7
2017-Sep-25 18:30N 42°22' W 071°02'2 3.1
2017-Sep-25 18:00N 42°21' W 071°01'21378.4
2017-Sep-25 18:00N 42°22' W 071°02'0 0.0
2017-Sep-25 17:31N 42°22' W 071°02'0 2.9
2017-Sep-25 17:30N 42°22' W 071°02'0 0.0
2017-Sep-25 17:01N 42°22' W 071°02'0 1.2
2017-Sep-25 17:00N 42°22' W 071°02'0 0.0
2017-Sep-25 16:31N 42°22' W 071°02'0 9.3
2017-Sep-25 16:30N 42°22' W 071°02'0 0.0
2017-Sep-25 16:00N 42°22' W 071°02'1681.0
2017-Sep-25 16:00N 42°23' W 071°03'1 2.3
2017-Sep-25 15:31N 42°22' W 071°02'0262.5
2017-Sep-25 15:30N 42°21' W 071°02'0 0.7
2017-Sep-25 15:01N 42°22' W 071°02'85478.5
2017-Sep-25 15:00N 42°24' W 070°52'816.5
2017-Sep-25 14:31N 42°23' W 071°03'517716.1
2017-Sep-25 14:30N 42°20' W 070°57'2 3.7
2017-Sep-25 14:00N 42°21' W 070°60'2279.7
2017-Sep-25 14:00N 42°22' W 071°02'918.9
2017-Sep-25 13:30N 42°23' W 070°49'92397.3
2017-Sep-25 13:30N 42°22' W 071°02'1019.9
2017-Sep-25 13:00N 42°23' W 070°49'1035493.4
2017-Sep-25 13:00N 42°22' W 071°02'0 0.0
2017-Sep-25 12:31N 42°22' W 071°02'105073.2
2017-Sep-25 12:30N 42°23' W 070°49'0 0.6
2017-Sep-25 12:00N 42°23' W 070°49'1034946.5
2017-Sep-25 12:00N 42°22' W 071°02'816.5
2017-Sep-25 11:30N 42°20' W 070°51'84235.1
2017-Sep-25 11:30N 42°22' W 071°02'816.8
2017-Sep-25 11:01N 42°21' W 070°51'83760.7
2017-Sep-25 11:00N 42°22' W 071°02'918.1
2017-Sep-25 10:31N 42°24' W 070°50'94619.1
2017-Sep-25 10:30N 42°22' W 071°02'713.4
2017-Sep-25 10:01N 42°19' W 070°53'71202.7
2017-Sep-25 10:00N 42°22' W 071°02'0 0.0
2017-Sep-25 09:30N 42°22' W 071°02'8188.0
2017-Sep-25 09:28N 42°15' W 070°58'816.5
2017-Sep-25 09:01N 42°22' W 071°02'31320.7
2017-Sep-25 09:00N 42°20' W 070°60'2 3.0
2017-Sep-25 08:30N 42°20' W 070°58'36025.1
2017-Sep-25 08:30N 42°22' W 071°02'1020.3
2017-Sep-25 08:01N 42°24' W 070°49'104553.4
2017-Sep-25 08:00N 42°22' W 071°02'0 0.0
2017-Sep-25 07:31N 42°22' W 071°02'55615.0
2017-Sep-25 07:30N 42°21' W 070°56'5 9.3
2017-Sep-25 07:00N 42°22' W 071°02'0 8.1
2017-Sep-25 07:00N 42°22' W 071°02'0 0.0
2017-Sep-25 06:30N 42°22' W 071°02'0 1.3
2017-Sep-25 06:30N 42°22' W 071°02'0 0.0
2017-Sep-25 06:00N 42°22' W 071°02'021.6
2017-Sep-25 06:00N 42°22' W 071°02'3 5.1
2017-Sep-25 05:31N 42°20' W 070°59'3571.5
2017-Sep-25 05:30N 42°22' W 071°02'0 0.0
2017-Sep-25 05:01N 42°22' W 071°02'0 0.0
2017-Sep-25 04:30N 42°22' W 071°02'0 0.0
2017-Sep-25 04:00N 42°22' W 071°02'518519.8
2017-Sep-25 04:00N 42°22' W 070°55'4 8.7
2017-Sep-25 03:31N 42°20' W 071°00'2853.8
2017-Sep-25 03:30N 42°22' W 071°02'1 2.3
2017-Sep-25 03:00N 42°21' W 071°02'1 2.3
2017-Sep-25 02:30N 42°22' W 071°02'1 7.1
2017-Sep-25 02:21N 42°21' W 071°02'1 3.6
2017-Sep-25 02:01N 42°22' W 071°02'0 9.3
2017-Sep-25 02:00N 42°22' W 071°02'0 0.0
2017-Sep-25 01:31N 42°22' W 071°02'0 0.0
2017-Sep-25 01:01N 42°22' W 071°02'0 5.9
2017-Sep-25 01:00N 42°22' W 071°02'0 0.0
2017-Sep-25 00:31N 42°22' W 071°02'0 4.8
2017-Sep-25 00:30N 42°22' W 071°02'0 0.0
2017-Sep-25 00:01N 42°22' W 071°02'0 4.3
2017-Sep-25 00:00N 42°22' W 071°02'0 0.0
2017-Sep-24 23:31N 42°22' W 071°02'0 4.8
2017-Sep-24 23:30N 42°22' W 071°02'0 0.0
2017-Sep-24 23:01N 42°22' W 071°02'1 2.5
2017-Sep-24 22:30N 42°21' W 071°01'1447.7
2017-Sep-24 22:30N 42°22' W 071°02'1 2.8
2017-Sep-24 22:01N 42°21' W 071°01'1129.4
2017-Sep-24 22:00N 42°22' W 071°02'4 8.7
2017-Sep-24 21:30N 42°21' W 070°56'4904.4
2017-Sep-24 21:30N 42°22' W 071°02'611.3
2017-Sep-24 21:00N 42°23' W 070°54'64025.7
2017-Sep-24 21:00N 42°22' W 071°02'816.7
2017-Sep-24 20:31N 42°23' W 070°51'83313.4
2017-Sep-24 20:30N 42°22' W 071°02'3 6.4
2017-Sep-24 20:00N 42°20' W 070°58'31633.1
2017-Sep-24 20:00N 42°22' W 071°02'0 0.0
2017-Sep-24 19:30N 42°22' W 071°02'0 1.2
2017-Sep-24 19:30N 42°22' W 071°02'0 0.0
2017-Sep-24 19:00N 42°22' W 071°02'013.4
2017-Sep-24 19:00N 42°22' W 071°02'1 2.6
2017-Sep-24 18:30N 42°21' W 071°01'1171.0
2017-Sep-24 18:30N 42°22' W 071°02'1 2.5
2017-Sep-24 18:00N 42°21' W 071°01'1321.1
2017-Sep-24 18:00N 42°22' W 071°02'4 8.3
2017-Sep-24 17:30N 42°20' W 070°57'41480.3
2017-Sep-24 17:30N 42°22' W 071°02'815.5
2017-Sep-24 17:00N 42°23' W 070°52'82128.1
2017-Sep-24 17:00N 42°22' W 071°02'917.2
2017-Sep-24 16:31N 42°23' W 070°51'92557.8
2017-Sep-24 16:30N 42°22' W 071°02'0 0.0
2017-Sep-24 16:01N 42°22' W 071°02'11733.6
2017-Sep-24 16:00N 42°21' W 071°01'1 2.9
2017-Sep-24 15:31N 42°22' W 071°02'0 0.8
2017-Sep-24 15:30N 42°22' W 071°02'0 0.0
2017-Sep-24 15:00N 42°22' W 071°02'0 0.5
2017-Sep-24 14:59N 42°22' W 071°02'0 0.0
2017-Sep-24 14:30N 42°22' W 071°02'0 0.5
2017-Sep-24 14:29N 42°22' W 071°02'0 0.7
2017-Sep-24 14:00N 42°21' W 071°02'0196.2
2017-Sep-24 14:00N 42°22' W 071°02'612.9
2017-Sep-24 13:30N 42°22' W 070°53'65787.2
2017-Sep-24 13:30N 42°22' W 071°02'917.6
2017-Sep-24 13:00N 42°23' W 070°50'97909.7
2017-Sep-24 13:00N 42°22' W 071°02'2 4.8
2017-Sep-24 12:30N 42°20' W 070°59'2543.2
2017-Sep-24 12:30N 42°22' W 071°02'0 0.0
2017-Sep-24 12:01N 42°22' W 071°02'0 1.1
2017-Sep-24 12:00N 42°22' W 071°02'0 0.0
2017-Sep-24 11:30N 42°22' W 071°02'0 5.4
2017-Sep-24 11:30N 42°22' W 071°02'0 0.0
2017-Sep-24 11:00N 42°22' W 071°02'0 4.0
2017-Sep-24 11:00N 42°22' W 071°02'0 0.0
2017-Sep-24 10:31N 42°22' W 071°02'0 0.2
2017-Sep-24 10:28N 42°22' W 071°02'4 8.8
2017-Sep-24 10:01N 42°20' W 070°57'414254.3
2017-Sep-24 10:01N 42°22' W 071°02'0 0.0
2017-Sep-24 09:31N 42°22' W 071°02'95359.3
2017-Sep-24 09:30N 42°23' W 070°50'917.9
2017-Sep-24 09:01N 42°22' W 071°02'0 0.0
2017-Sep-24 08:30N 42°22' W 071°02'0 9.0
2017-Sep-24 08:30N 42°22' W 071°02'0 0.0
2017-Sep-24 08:00N 42°22' W 071°02'013.4
2017-Sep-24 08:00N 42°22' W 071°02'0 0.0
2017-Sep-24 07:30N 42°22' W 071°02'0 4.5
2017-Sep-24 07:30N 42°22' W 071°02'0 0.0
2017-Sep-24 07:00N 42°22' W 071°02'0 3.2
2017-Sep-24 07:00N 42°22' W 071°02'1 2.4
2017-Sep-24 06:30N 42°21' W 071°02'11061.7
2017-Sep-24 06:30N 42°22' W 071°02'612.2
2017-Sep-24 06:00N 42°22' W 070°54'61457.1
2017-Sep-24 06:00N 42°22' W 071°02'0 0.0
2017-Sep-24 05:31N 42°22' W 071°02'54158.5
2017-Sep-24 05:30N 42°22' W 070°56'4 7.7
2017-Sep-24 05:00N 42°21' W 071°01'2368.0
2017-Sep-24 05:00N 42°22' W 071°02'0 0.0
2017-Sep-24 04:30N 42°22' W 071°02'010.8
2017-Sep-24 04:30N 42°22' W 071°02'0 0.0
2017-Sep-24 04:00N 42°22' W 071°02'0 3.8
2017-Sep-24 04:00N 42°22' W 071°02'0 0.0
2017-Sep-24 03:30N 42°22' W 071°02'0 4.6
2017-Sep-24 03:30N 42°22' W 071°02'0 0.0
2017-Sep-24 03:00N 42°22' W 071°02'0 5.9
2017-Sep-24 03:00N 42°22' W 071°02'0 0.0
2017-Sep-24 02:30N 42°22' W 071°02'14299.3
2017-Sep-24 02:30N 42°21' W 071°02'713.4
2017-Sep-24 02:00N 42°23' W 070°53'74775.2
2017-Sep-24 02:00N 42°22' W 071°02'510.3
2017-Sep-24 01:31N 42°22' W 070°55'52296.5
2017-Sep-24 01:30N 42°22' W 071°02'612.1
2017-Sep-24 01:00N 42°23' W 070°54'63621.7
2017-Sep-24 01:00N 42°22' W 071°02'0 0.0
2017-Sep-24 00:31N 42°22' W 071°02'51149.8
2017-Sep-24 00:30N 42°22' W 070°55'4 8.3
2017-Sep-24 00:00N 42°20' W 070°60'21050.0
2017-Sep-24 00:00N 42°22' W 071°02'0 0.0
2017-Sep-23 23:30N 42°22' W 071°02'0 0.1
2017-Sep-23 23:23N 42°22' W 071°02'0 0.0
2017-Sep-23 23:01N 42°22' W 071°02'0 1.8
2017-Sep-23 23:00N 42°22' W 071°02'0 0.0
2017-Sep-23 22:30N 42°22' W 071°02'0 1.0
2017-Sep-23 22:30N 42°22' W 071°02'3 5.6
2017-Sep-23 22:00N 42°20' W 070°59'31965.6
2017-Sep-23 22:00N 42°22' W 071°02'0 0.0
2017-Sep-23 21:31N 42°22' W 071°02'98073.9
2017-Sep-23 21:30N 42°24' W 070°50'918.0
2017-Sep-23 21:01N 42°22' W 071°02'47793.5
2017-Sep-23 21:00N 42°21' W 070°56'4 7.9
2017-Sep-23 20:30N 42°21' W 071°02'1255.4
2017-Sep-23 20:30N 42°22' W 071°02'0 0.0
2017-Sep-23 20:00N 42°22' W 071°02'0 1.3
2017-Sep-23 20:00N 42°22' W 071°02'0 0.0
2017-Sep-22 02:01N 42°22' W 071°02'010.8
2017-Sep-22 02:00N 42°22' W 071°02'5 9.5
2017-Sep-22 01:31N 42°22' W 070°55'53403.2
2017-Sep-22 01:30N 42°22' W 071°02'612.4
2017-Sep-22 01:01N 42°23' W 070°54'63720.5
2017-Sep-22 01:00N 42°22' W 071°02'0 0.0
2017-Sep-22 00:30N 42°22' W 071°02'2444.9
2017-Sep-22 00:30N 42°20' W 071°01'2 3.2
2017-Sep-22 00:00N 42°22' W 071°02'0 0.2
2017-Sep-21 23:59N 42°22' W 071°02'0 0.0
2017-Sep-21 23:30N 42°22' W 071°02'0 0.8
2017-Sep-21 23:30N 42°22' W 071°02'5 9.5
2017-Sep-21 23:00N 42°21' W 070°56'52389.2
2017-Sep-21 23:00N 42°22' W 071°02'611.6
2017-Sep-21 22:30N 42°22' W 070°54'61479.7
2017-Sep-21 22:30N 42°22' W 071°02'2 3.0
2017-Sep-21 22:00N 42°21' W 071°01'2493.8
2017-Sep-21 22:00N 42°22' W 071°02'0 0.0
2017-Sep-21 21:30N 42°22' W 071°02'0 1.3
2017-Sep-21 21:30N 42°22' W 071°02'0 0.0
2017-Sep-21 21:00N 42°22' W 071°02'0 6.7
2017-Sep-21 21:00N 42°22' W 071°02'0 0.0
2017-Sep-21 20:30N 42°22' W 071°02'0 1.9
2017-Sep-21 20:30N 42°22' W 071°02'3 5.5
2017-Sep-21 20:00N 42°20' W 070°59'39805.7
2017-Sep-21 20:00N 42°22' W 071°02'816.2
2017-Sep-21 19:31N 42°24' W 070°52'85819.2
2017-Sep-21 19:30N 42°22' W 071°02'0 0.0
2017-Sep-21 19:00N 42°22' W 071°02'519277.7
2017-Sep-21 19:00N 42°22' W 070°55'5 9.7
2017-Sep-21 18:31N 42°21' W 071°01'11014.4
2017-Sep-21 18:30N 42°22' W 071°02'0 0.0
2017-Sep-21 18:00N 42°22' W 071°02'0 0.2
2017-Sep-21 17:59N 42°22' W 071°02'1 1.2
2017-Sep-21 17:31N 42°21' W 071°02'1390.8
2017-Sep-21 17:30N 42°22' W 071°02'511.0
2017-Sep-21 17:01N 42°22' W 070°55'51311.6
2017-Sep-21 17:00N 42°22' W 071°02'510.9
2017-Sep-21 16:31N 42°22' W 070°55'53248.8
2017-Sep-21 16:30N 42°22' W 071°02'2 5.0
2017-Sep-21 16:01N 42°20' W 070°60'3531.6
2017-Sep-21 16:00N 42°22' W 071°02'0 0.1
2017-Sep-21 15:30N 42°22' W 071°02'014.4
2017-Sep-21 15:30N 42°22' W 071°02'0 0.0
2017-Sep-21 15:00N 42°22' W 071°02'016.2
2017-Sep-21 15:00N 42°22' W 071°02'0 0.0
2017-Sep-21 14:30N 42°22' W 071°02'0 2.9
2017-Sep-21 14:30N 42°22' W 071°02'0 0.0
2017-Sep-21 14:00N 42°22' W 071°02'0 6.2
2017-Sep-21 14:00N 42°22' W 071°02'0 0.0
2017-Sep-21 13:30N 42°22' W 071°02'013.0
2017-Sep-21 13:30N 42°22' W 071°02'0 0.0
2017-Sep-21 13:00N 42°22' W 071°02'032.4
2017-Sep-21 13:00N 42°22' W 071°02'0 0.0
2017-Sep-21 12:31N 42°22' W 071°02'010.8
2017-Sep-21 12:30N 42°22' W 071°02'0 0.0
2017-Sep-21 12:00N 42°22' W 071°02'14320.3
2017-Sep-21 12:00N 42°21' W 071°02'5 9.4
2017-Sep-21 11:31N 42°21' W 070°56'5113.8
2017-Sep-21 11:28N 42°22' W 071°02'510.7
2017-Sep-21 11:00N 42°22' W 070°55'54430.0
2017-Sep-21 11:00N 42°22' W 071°02'918.0
2017-Sep-21 10:30N 42°24' W 070°50'92484.0
2017-Sep-21 10:30N 42°22' W 071°02'0 0.0
2017-Sep-21 10:00N 42°22' W 071°02'66672.6
2017-Sep-21 10:00N 42°22' W 070°54'4 9.0
2017-Sep-21 09:31N 42°21' W 070°60'21125.0
2017-Sep-21 09:30N 42°22' W 071°02'4 7.1
2017-Sep-21 09:01N 42°20' W 070°57'4852.8
2017-Sep-21 09:00N 42°22' W 071°02'917.3
2017-Sep-21 08:30N 42°23' W 070°51'97716.2
2017-Sep-21 08:30N 42°22' W 071°02'815.6
2017-Sep-21 08:01N 42°23' W 070°52'85583.4
2017-Sep-21 08:00N 42°22' W 071°02'4 8.8
2017-Sep-21 07:31N 42°21' W 070°56'43160.7
2017-Sep-21 07:30N 42°22' W 071°02'0 0.0
2017-Sep-21 07:00N 42°22' W 071°02'064.8
2017-Sep-21 07:00N 42°22' W 071°02'0 0.0
2017-Sep-21 06:30N 42°22' W 071°02'064.8
2017-Sep-21 06:30N 42°22' W 071°02'0 0.0
2017-Sep-21 06:00N 42°22' W 071°02'0 0.0
2017-Sep-21 05:30N 42°22' W 071°02'0 2.3
2017-Sep-21 05:30N 42°22' W 071°02'0 0.0
2017-Sep-21 05:00N 42°22' W 071°02'0 2.8
2017-Sep-21 05:00N 42°22' W 071°02'0 0.0
2017-Sep-21 04:30N 42°22' W 071°02'0 6.1
2017-Sep-21 04:30N 42°22' W 071°02'0 0.0
2017-Sep-21 04:00N 42°22' W 071°02'0 4.8
2017-Sep-21 04:00N 42°22' W 071°02'0 0.0
2017-Sep-21 03:30N 42°22' W 071°02'0 3.4
2017-Sep-21 03:30N 42°22' W 071°02'0 0.0
2017-Sep-21 03:00N 42°22' W 071°02'0 0.0
2017-Sep-21 02:30N 42°22' W 071°02'043.2
2017-Sep-21 02:30N 42°22' W 071°02'0 0.0
2017-Sep-21 02:00N 42°22' W 071°02'0 7.2
2017-Sep-21 02:00N 42°22' W 071°02'0 0.0
2017-Sep-21 01:30N 42°22' W 071°02'0 2.2
2017-Sep-21 01:30N 42°22' W 071°02'0 0.0
2017-Sep-21 01:00N 42°22' W 071°02'0 1.7
2017-Sep-21 01:00N 42°22' W 071°02'0 0.0
2017-Sep-21 00:30N 42°22' W 071°02'0 1.1
2017-Sep-21 00:30N 42°22' W 071°02'0 0.0
2017-Sep-21 00:00N 42°22' W 071°02'0 1.4
2017-Sep-21 00:00N 42°22' W 071°02'0 0.0
2017-Sep-20 23:30N 42°22' W 071°02'0 0.3
2017-Sep-20 23:28N 42°22' W 071°02'0 0.0
2017-Sep-20 23:00N 42°22' W 071°02'0 7.2
2017-Sep-20 23:00N 42°22' W 071°02'0 0.0
2017-Sep-20 22:30N 42°22' W 071°02'0 1.1
2017-Sep-20 22:29N 42°22' W 071°02'0 0.0
2017-Sep-20 22:00N 42°22' W 071°02'0 7.2
2017-Sep-20 22:00N 42°22' W 071°02'0 0.0
2017-Sep-20 21:30N 42°22' W 071°02'0 1.3
2017-Sep-20 21:30N 42°22' W 071°02'0 0.0
2017-Sep-20 21:00N 42°22' W 071°02'0 0.5
2017-Sep-20 20:59N 42°22' W 071°02'0 0.0
2017-Sep-20 20:30N 42°22' W 071°02'0 1.5
2017-Sep-20 20:30N 42°22' W 071°02'0 0.0
2017-Sep-20 20:00N 42°22' W 071°02'0 1.4
2017-Sep-20 20:00N 42°22' W 071°02'0 0.0
2017-Sep-20 19:30N 42°22' W 071°02'0 8.1
2017-Sep-20 19:30N 42°22' W 071°02'1 2.7
2017-Sep-20 19:00N 42°23' W 071°03'152.9
2017-Sep-20 18:59N 42°22' W 071°02'0 0.0
2017-Sep-20 18:30N 42°22' W 071°02'0 0.1
2017-Sep-20 18:28N 42°22' W 071°02'0 0.0
2017-Sep-20 18:00N 42°22' W 071°02'0 0.8
2017-Sep-20 18:00N 42°22' W 071°02'0 0.0
2017-Sep-20 17:30N 42°22' W 071°02'4 7.1
2017-Sep-20 17:01N 42°20' W 070°58'4709.0
2017-Sep-20 17:00N 42°22' W 071°02'816.4
2017-Sep-20 16:30N 42°24' W 070°51'84186.9
2017-Sep-20 16:30N 42°22' W 071°02'4 8.5
2017-Sep-20 16:00N 42°20' W 070°57'4459.0
2017-Sep-20 16:00N 42°22' W 071°02'4 7.2
2017-Sep-20 15:30N 42°20' W 070°58'42133.4
2017-Sep-20 15:30N 42°22' W 071°02'612.2
2017-Sep-20 15:00N 42°22' W 070°54'61681.0
2017-Sep-20 15:00N 42°22' W 071°02'5 4.8
2017-Sep-20 14:01N 42°22' W 070°55'52480.8
2017-Sep-20 14:00N 42°22' W 071°02'0 0.0
2017-Sep-20 13:30N 42°22' W 071°02'1120.0
2017-Sep-20 13:30N 42°21' W 071°02'0 0.4
2017-Sep-20 13:00N 42°21' W 071°02'1613.4
2017-Sep-20 13:00N 42°22' W 071°02'2 4.7
2017-Sep-20 12:31N 42°20' W 070°59'2462.9
2017-Sep-20 12:30N 42°22' W 071°02'815.8
2017-Sep-20 12:00N 42°24' W 070°52'8913.4
2017-Sep-20 12:00N 42°22' W 071°02'510.1
2017-Sep-20 11:30N 42°22' W 070°55'51624.6
2017-Sep-20 11:30N 42°22' W 071°02'0 0.0
2017-Sep-20 11:00N 42°22' W 071°02'0 8.1
2017-Sep-20 11:00N 42°22' W 071°02'0 0.0
2017-Sep-20 10:30N 42°22' W 071°02'0 3.1
2017-Sep-20 10:30N 42°22' W 071°02'0 0.0
2017-Sep-20 10:00N 42°22' W 071°02'0 5.1
2017-Sep-20 10:00N 42°22' W 071°02'0 0.0
2017-Sep-20 09:30N 42°22' W 071°02'064.8
2017-Sep-20 09:30N 42°22' W 071°02'0 0.0
2017-Sep-20 09:00N 42°22' W 071°02'0 8.1
2017-Sep-20 09:00N 42°22' W 071°02'0 0.0
2017-Sep-20 08:30N 42°22' W 071°02'0 6.7
2017-Sep-20 08:30N 42°22' W 071°02'0 0.0
2017-Sep-20 08:00N 42°22' W 071°02'0 7.4
2017-Sep-20 08:00N 42°22' W 071°02'0 0.0
2017-Sep-20 07:30N 42°22' W 071°02'0 6.5
2017-Sep-20 07:30N 42°22' W 071°02'0 0.0
2017-Sep-20 07:00N 42°22' W 071°02'032.4
2017-Sep-20 07:00N 42°22' W 071°02'0 0.0
2017-Sep-20 06:30N 42°22' W 071°02'0 3.9
2017-Sep-20 06:30N 42°22' W 071°02'0 0.0
2017-Sep-20 06:00N 42°22' W 071°02'0 2.2
2017-Sep-20 06:00N 42°22' W 071°02'0 0.0
2017-Sep-20 05:30N 42°22' W 071°02'021.6
2017-Sep-20 05:30N 42°22' W 071°02'0 0.0
2017-Sep-20 05:00N 42°22' W 071°02'0 1.5
2017-Sep-20 05:00N 42°22' W 071°02'3 5.2
2017-Sep-20 04:30N 42°20' W 070°59'3331.8
2017-Sep-20 04:30N 42°22' W 071°02'713.8
2017-Sep-20 04:00N 42°23' W 070°53'71879.6
2017-Sep-20 04:00N 42°22' W 071°02'0 0.0
2017-Sep-20 03:30N 42°22' W 071°02'251.3
2017-Sep-20 03:28N 42°20' W 071°00'1 3.3
2017-Sep-20 03:01N 42°21' W 071°02'1533.8
2017-Sep-20 03:00N 42°22' W 071°02'0 0.0
2017-Sep-20 02:30N 42°22' W 071°02'1237.2
2017-Sep-20 02:30N 42°21' W 071°02'3 6.7
2017-Sep-20 02:00N 42°20' W 070°58'31131.2
2017-Sep-20 02:00N 42°22' W 071°02'816.6
2017-Sep-20 01:30N 42°23' W 070°51'814843.0
2017-Sep-20 01:30N 42°22' W 071°02'4 8.6
2017-Sep-20 01:00N 42°21' W 070°56'41556.7
2017-Sep-20 01:00N 42°22' W 071°02'4 8.6
2017-Sep-20 00:31N 42°21' W 070°56'42178.3
2017-Sep-20 00:30N 42°22' W 071°02'612.4
2017-Sep-20 00:00N 42°23' W 070°54'6438.2
2017-Sep-20 00:00N 42°22' W 071°02'1019.7
2017-Sep-19 23:30N 42°24' W 070°49'108613.8
2017-Sep-19 23:30N 42°22' W 071°02'713.3
2017-Sep-19 23:01N 42°23' W 070°53'72973.5
2017-Sep-19 23:00N 42°22' W 071°02'3 6.9
2017-Sep-19 22:30N 42°20' W 070°58'31237.4
2017-Sep-19 22:30N 42°22' W 071°02'0 0.6
2017-Sep-19 22:00N 42°21' W 071°02'095.5
2017-Sep-19 22:00N 42°22' W 071°02'0 0.0
2017-Sep-19 21:30N 42°22' W 071°02'0 2.0
2017-Sep-19 21:30N 42°22' W 071°02'0 0.0
2017-Sep-19 21:00N 42°22' W 071°02'0 1.9
2017-Sep-19 21:00N 42°22' W 071°02'0 0.0
2017-Sep-19 20:30N 42°22' W 071°02'016.2
2017-Sep-19 20:30N 42°22' W 071°02'0 0.0
2017-Sep-19 20:01N 42°22' W 071°02'0 4.3
2017-Sep-19 20:00N 42°22' W 071°02'0 0.0
2017-Sep-19 19:31N 42°22' W 071°02'010.8
2017-Sep-19 19:30N 42°22' W 071°02'0 0.0
2017-Sep-19 19:00N 42°22' W 071°02'0 1.8
2017-Sep-19 19:00N 42°22' W 071°02'0 0.0
2017-Sep-19 18:31N 42°22' W 071°02'0 2.2
2017-Sep-19 18:30N 42°22' W 071°02'0 0.0
2017-Sep-19 18:00N 42°22' W 071°02'016.2
2017-Sep-19 18:00N 42°22' W 071°02'0 0.0
2017-Sep-19 17:31N 42°22' W 071°02'0 2.3
2017-Sep-19 17:30N 42°22' W 071°02'0 0.0
2017-Sep-19 17:01N 42°22' W 071°02'013.0
2017-Sep-19 17:00N 42°22' W 071°02'0 0.0
2017-Sep-19 16:30N 42°22' W 071°02'0 5.4
2017-Sep-19 16:30N 42°22' W 071°02'0 0.0
2017-Sep-19 16:00N 42°22' W 071°02'1275.2
2017-Sep-19 16:00N 42°21' W 071°01'1 2.6
2017-Sep-19 15:30N 42°22' W 071°02'161.8
2017-Sep-19 15:29N 42°21' W 071°02'1 2.5
2017-Sep-19 15:00N 42°22' W 071°02'115.3
2017-Sep-19 14:56N 42°21' W 071°02'3 8.3
2017-Sep-19 14:31N 42°20' W 070°57'42022.5
2017-Sep-19 14:30N 42°22' W 071°02'0 0.0
2017-Sep-19 14:00N 42°22' W 071°02'94522.8
2017-Sep-19 14:00N 42°24' W 070°50'1 1.1
2017-Sep-19 13:31N 42°24' W 070°49'92102.2
2017-Sep-19 13:30N 42°22' W 071°02'0 0.0
2017-Sep-19 13:00N 42°22' W 071°02'71711.7
2017-Sep-19 13:00N 42°23' W 070°52'611.8
2017-Sep-19 12:30N 42°20' W 070°59'2538.3
2017-Sep-19 12:30N 42°22' W 071°02'0 0.0
2017-Sep-19 12:00N 42°22' W 071°02'0 8.0
2017-Sep-19 12:00N 42°22' W 071°02'1 2.7
2017-Sep-19 11:30N 42°23' W 071°03'1963.8
2017-Sep-19 11:30N 42°22' W 071°02'2 3.0
2017-Sep-19 11:00N 42°21' W 071°00'21089.6
2017-Sep-19 11:00N 42°22' W 071°02'917.7
2017-Sep-19 10:31N 42°24' W 070°50'95275.8
2017-Sep-19 10:30N 42°22' W 071°02'5 9.1
2017-Sep-19 10:00N 42°21' W 070°56'51362.6
2017-Sep-19 10:00N 42°22' W 071°02'0 0.0
2017-Sep-19 09:30N 42°22' W 071°02'032.4
2017-Sep-19 09:30N 42°22' W 071°02'0 0.0
2017-Sep-19 09:00N 42°22' W 071°02'0 0.0
2017-Sep-19 08:30N 42°22' W 071°02'0 0.0
2017-Sep-19 08:00N 42°22' W 071°02'033.4
2017-Sep-19 08:00N 42°22' W 071°02'0 0.0
2017-Sep-19 07:30N 42°22' W 071°02'0 0.0
2017-Sep-19 07:00N 42°22' W 071°02'0 2.2
2017-Sep-19 07:00N 42°22' W 071°02'0 0.0
2017-Sep-19 06:30N 42°22' W 071°02'0 0.0
2017-Sep-19 06:00N 42°22' W 071°02'064.8
2017-Sep-19 06:00N 42°22' W 071°02'0 0.0
2017-Sep-19 05:30N 42°22' W 071°02'0 8.1
2017-Sep-19 05:30N 42°22' W 071°02'0 0.0
2017-Sep-19 05:00N 42°22' W 071°02'032.4
2017-Sep-19 05:00N 42°22' W 071°02'0 0.0
2017-Sep-19 04:30N 42°22' W 071°02'032.4
2017-Sep-19 04:30N 42°22' W 071°02'0 0.0
2017-Sep-19 04:00N 42°22' W 071°02'032.4
2017-Sep-19 04:00N 42°22' W 071°02'0 0.0
2017-Sep-19 03:30N 42°22' W 071°02'032.4
2017-Sep-19 03:30N 42°22' W 071°02'0 0.0
2017-Sep-19 03:00N 42°22' W 071°02'064.8
2017-Sep-19 03:00N 42°22' W 071°02'0 0.0
2017-Sep-19 02:30N 42°22' W 071°02'064.8
2017-Sep-19 02:30N 42°22' W 071°02'0 0.0
2017-Sep-19 02:00N 42°22' W 071°02'064.8
2017-Sep-19 02:00N 42°22' W 071°02'0 0.0
2017-Sep-19 01:30N 42°22' W 071°02'032.4
2017-Sep-19 01:30N 42°22' W 071°02'0 0.0
2017-Sep-19 01:00N 42°22' W 071°02'0 7.2
2017-Sep-19 01:00N 42°22' W 071°02'0 0.0
2017-Sep-19 00:30N 42°22' W 071°02'0 0.0
2017-Sep-19 00:00N 42°22' W 071°02'043.2
2017-Sep-19 00:00N 42°22' W 071°02'0 0.0
2017-Sep-18 23:30N 42°22' W 071°02'064.8
2017-Sep-18 23:30N 42°22' W 071°02'0 0.0
2017-Sep-18 23:00N 42°22' W 071°02'1610.2
2017-Sep-18 23:00N 42°23' W 071°03'3 5.3
2017-Sep-18 22:31N 42°21' W 071°01'1923.2
2017-Sep-18 22:30N 42°22' W 071°02'510.9
2017-Sep-18 22:00N 42°23' W 070°55'54872.1
2017-Sep-18 22:00N 42°22' W 071°02'0 0.0
2017-Sep-18 21:30N 42°22' W 071°02'62938.2
2017-Sep-18 21:30N 42°23' W 070°54'0 0.1
2017-Sep-18 21:01N 42°23' W 070°54'620675.2
2017-Sep-18 21:01N 42°22' W 071°02'611.7
2017-Sep-18 20:30N 42°23' W 070°54'67046.7
2017-Sep-18 20:30N 42°22' W 071°02'714.4
2017-Sep-18 20:00N 42°23' W 070°52'74321.0
2017-Sep-18 20:00N 42°22' W 071°02'3 5.6
2017-Sep-18 19:31N 42°20' W 070°59'3629.1
2017-Sep-18 19:30N 42°22' W 071°02'0 0.0
2017-Sep-18 19:00N 42°22' W 071°02'0 0.5
2017-Sep-18 19:00N 42°22' W 071°02'4 7.4
2017-Sep-18 18:31N 42°20' W 070°57'4816.8
2017-Sep-18 18:30N 42°22' W 071°02'816.9
2017-Sep-18 18:01N 42°21' W 070°51'83759.5
2017-Sep-18 18:00N 42°22' W 071°02'0 0.0
2017-Sep-18 17:30N 42°22' W 071°02'620454.4
2017-Sep-18 17:30N 42°19' W 070°55'2 4.0
2017-Sep-18 17:01N 42°20' W 070°57'42244.0
2017-Sep-18 17:00N 42°22' W 071°02'2 4.7
2017-Sep-18 16:31N 42°20' W 070°59'21201.6
2017-Sep-18 16:30N 42°22' W 071°02'510.2
2017-Sep-18 16:00N 42°22' W 070°55'53060.7
2017-Sep-18 16:00N 42°22' W 071°02'3 7.0
2017-Sep-18 15:31N 42°20' W 070°58'31785.8
2017-Sep-18 15:30N 42°22' W 071°02'0 0.0
2017-Sep-18 15:00N 42°22' W 071°02'0 2.1
2017-Sep-18 15:00N 42°22' W 071°02'0 0.0
2017-Sep-18 14:31N 42°22' W 071°02'0 0.0
2017-Sep-18 14:30N 42°22' W 071°02'0 0.0
2017-Sep-18 14:00N 42°22' W 071°02'518673.3
2017-Sep-18 14:00N 42°22' W 070°55'510.4
2017-Sep-18 13:30N 42°22' W 071°02'52903.8
2017-Sep-18 13:30N 42°22' W 070°55'4 7.1
2017-Sep-18 13:00N 42°20' W 070°59'3720.9
2017-Sep-18 13:00N 42°22' W 071°02'0 0.0
2017-Sep-18 12:30N 42°22' W 071°02'0 3.2
2017-Sep-18 12:30N 42°22' W 071°02'0 0.0
2017-Sep-18 12:00N 42°22' W 071°02'0 0.0
2017-Sep-18 12:00N 42°22' W 071°02'0 0.0
2017-Sep-18 11:30N 42°22' W 071°02'0 0.4
2017-Sep-18 11:30N 42°22' W 071°02'5 9.9
2017-Sep-18 11:01N 42°22' W 070°55'52480.8
2017-Sep-18 11:00N 42°22' W 071°02'715.0
2017-Sep-18 10:30N 42°23' W 070°52'713481.3
2017-Sep-18 10:30N 42°22' W 071°02'611.5
2017-Sep-18 10:01N 42°22' W 070°54'62950.6
2017-Sep-18 10:00N 42°22' W 071°02'0 0.9
2017-Sep-18 09:31N 42°21' W 071°02'0280.0
2017-Sep-18 09:30N 42°22' W 071°02'0 0.0
2017-Sep-18 09:01N 42°22' W 071°02'0 2.3
2017-Sep-18 09:00N 42°22' W 071°02'0 0.0
2017-Sep-18 08:30N 42°22' W 071°02'0 0.0
2017-Sep-18 08:30N 42°22' W 071°02'0 0.0
2017-Sep-18 08:00N 42°22' W 071°02'0 0.0
2017-Sep-18 08:00N 42°22' W 071°02'1 2.4
2017-Sep-18 07:30N 42°21' W 071°01'1850.7
2017-Sep-18 07:30N 42°22' W 071°02'0 0.0
2017-Sep-18 07:01N 42°22' W 071°02'0 1.7
2017-Sep-18 07:00N 42°22' W 071°02'0 0.0
2017-Sep-18 06:31N 42°22' W 071°02'0 9.3
2017-Sep-18 06:30N 42°22' W 071°02'0 0.0
2017-Sep-18 06:01N 42°22' W 071°02'0 7.2
2017-Sep-18 06:00N 42°22' W 071°02'0 0.0
2017-Sep-18 05:31N 42°22' W 071°02'0 5.4
2017-Sep-18 05:30N 42°22' W 071°02'0 0.0
2017-Sep-18 05:01N 42°22' W 071°02'0 6.2
2017-Sep-18 05:00N 42°22' W 071°02'0 0.0
2017-Sep-18 04:30N 42°22' W 071°02'0 1.8
2017-Sep-18 04:30N 42°22' W 071°02'0 0.0
2017-Sep-18 04:00N 42°22' W 071°02'0 4.1
2017-Sep-18 04:00N 42°22' W 071°02'0 0.0
2017-Sep-18 03:31N 42°22' W 071°02'0 9.5
2017-Sep-18 03:30N 42°22' W 071°02'0 0.0
2017-Sep-18 03:01N 42°22' W 071°02'0 9.3
2017-Sep-18 03:00N 42°22' W 071°02'0 0.0
2017-Sep-18 02:30N 42°22' W 071°02'0 2.0
2017-Sep-18 02:30N 42°22' W 071°02'0 0.0
2017-Sep-18 02:01N 42°22' W 071°02'010.8
2017-Sep-18 02:00N 42°22' W 071°02'0 0.0
2017-Sep-18 01:31N 42°22' W 071°02'0 9.3
2017-Sep-18 01:30N 42°22' W 071°02'0 0.0
2017-Sep-18 01:01N 42°22' W 071°02'0 6.2
2017-Sep-18 01:00N 42°22' W 071°02'0 0.0
2017-Sep-18 00:31N 42°22' W 071°02'0 3.8
2017-Sep-18 00:30N 42°22' W 071°02'0 0.0
2017-Sep-18 00:00N 42°22' W 071°02'0 6.2
2017-Sep-18 00:00N 42°22' W 071°02'2 3.1
2017-Sep-17 23:30N 42°21' W 071°01'2456.5
2017-Sep-17 23:30N 42°22' W 071°02'0 0.0
2017-Sep-17 23:00N 42°22' W 071°02'545.3
2017-Sep-17 22:54N 42°22' W 070°56'511.6
2017-Sep-17 22:30N 42°22' W 071°02'360.3
2017-Sep-17 22:28N 42°20' W 070°59'2 5.2
2017-Sep-17 22:00N 42°21' W 071°02'1885.7
2017-Sep-17 22:00N 42°22' W 071°02'4 8.7
2017-Sep-17 21:31N 42°21' W 070°56'42239.3
2017-Sep-17 21:30N 42°22' W 071°02'0 0.0
2017-Sep-17 21:00N 42°22' W 071°02'4946.3
2017-Sep-17 21:00N 42°21' W 070°56'3 6.9
2017-Sep-17 20:31N 42°21' W 071°01'1628.2
2017-Sep-17 20:30N 42°22' W 071°02'1 2.4
2017-Sep-17 20:00N 42°21' W 071°02'11072.9
2017-Sep-17 20:00N 42°22' W 071°02'1 2.4
2017-Sep-17 19:30N 42°21' W 071°02'1863.1
2017-Sep-17 19:30N 42°22' W 071°02'1 2.4
2017-Sep-17 19:00N 42°21' W 071°02'1878.1
2017-Sep-17 19:00N 42°22' W 071°02'3 6.1
2017-Sep-17 18:31N 42°20' W 070°58'31824.9
2017-Sep-17 18:30N 42°22' W 071°02'1 2.2
2017-Sep-17 18:01N 42°21' W 071°01'1497.7
2017-Sep-17 18:00N 42°22' W 071°02'0 0.0
2017-Sep-17 17:30N 42°22' W 071°02'41559.2
2017-Sep-17 17:30N 42°20' W 070°57'4 7.8
2017-Sep-17 17:00N 42°22' W 071°02'53191.9
2017-Sep-17 17:00N 42°22' W 070°55'3 6.6
2017-Sep-17 16:31N 42°20' W 070°58'31721.2
2017-Sep-17 16:30N 42°22' W 071°02'1 2.8
2017-Sep-17 16:00N 42°21' W 071°01'11657.8
2017-Sep-17 16:00N 42°22' W 071°02'0 0.7
2017-Sep-17 15:30N 42°22' W 071°02'0 0.6
2017-Sep-17 15:00N 42°22' W 071°02'021.6
2017-Sep-17 15:00N 42°22' W 071°02'0 0.0
2017-Sep-17 14:30N 42°22' W 071°02'0 3.2
2017-Sep-17 14:30N 42°22' W 071°02'0 0.0
2017-Sep-17 14:00N 42°22' W 071°02'0 8.1
2017-Sep-17 14:00N 42°22' W 071°02'0 0.0
2017-Sep-17 13:30N 42°22' W 071°02'0 5.9
2017-Sep-17 13:30N 42°22' W 071°02'0 0.0
2017-Sep-17 13:00N 42°22' W 071°02'0 3.2
2017-Sep-17 13:00N 42°22' W 071°02'0 0.0
2017-Sep-17 12:30N 42°22' W 071°02'0 0.0
2017-Sep-17 12:00N 42°22' W 071°02'066.7
2017-Sep-17 12:00N 42°22' W 071°02'0 0.0
2017-Sep-17 11:30N 42°22' W 071°02'0 5.9
2017-Sep-17 11:30N 42°22' W 071°02'0 0.0
2017-Sep-17 11:00N 42°22' W 071°02'12336.7
2017-Sep-17 11:00N 42°21' W 071°02'4 7.5
2017-Sep-17 10:30N 42°21' W 070°57'41498.3
2017-Sep-17 10:30N 42°22' W 071°02'917.9
2017-Sep-17 10:01N 42°24' W 070°50'94552.0
2017-Sep-17 10:00N 42°22' W 071°02'1019.3
2017-Sep-17 09:30N 42°24' W 070°49'108648.6
2017-Sep-17 09:30N 42°22' W 071°02'4 8.7
2017-Sep-17 09:00N 42°21' W 070°56'415595.4
2017-Sep-17 09:00N 42°22' W 071°02'0 0.0
2017-Sep-17 08:30N 42°22' W 071°02'0108.4
2017-Sep-17 08:30N 42°21' W 071°02'0 0.7
2017-Sep-17 08:00N 42°22' W 071°02'022.2
2017-Sep-17 08:00N 42°22' W 071°02'0 0.0
2017-Sep-17 07:30N 42°22' W 071°02'021.6
2017-Sep-17 07:30N 42°22' W 071°02'0 0.0
2017-Sep-17 07:00N 42°22' W 071°02'0 5.0
2017-Sep-17 07:00N 42°22' W 071°02'0 0.0
2017-Sep-17 06:30N 42°22' W 071°02'016.2
2017-Sep-17 06:30N 42°22' W 071°02'0 0.0
2017-Sep-17 06:00N 42°22' W 071°02'013.3
2017-Sep-17 06:00N 42°22' W 071°02'0 0.0
2017-Sep-17 05:30N 42°22' W 071°02'0 2.7
2017-Sep-17 05:30N 42°22' W 071°02'0 0.0
2017-Sep-17 05:00N 42°22' W 071°02'0 4.8
2017-Sep-17 05:00N 42°22' W 071°02'0 0.0
2017-Sep-17 04:31N 42°22' W 071°02'0 3.1
2017-Sep-17 04:30N 42°22' W 071°02'0 0.0
2017-Sep-17 04:00N 42°22' W 071°02'010.8
2017-Sep-17 04:00N 42°22' W 071°02'0 0.0
2017-Sep-17 03:30N 42°22' W 071°02'013.0
2017-Sep-17 03:30N 42°22' W 071°02'0 0.0
2017-Sep-17 03:00N 42°22' W 071°02'013.0
2017-Sep-17 03:00N 42°22' W 071°02'0 0.0
2017-Sep-17 02:30N 42°22' W 071°02'013.0
2017-Sep-17 02:30N 42°22' W 071°02'0 0.0
2017-Sep-17 02:01N 42°22' W 071°02'0 1.8
2017-Sep-17 02:00N 42°22' W 071°02'0 0.0
2017-Sep-17 01:31N 42°22' W 071°02'0 4.1
2017-Sep-17 01:30N 42°22' W 071°02'0 0.0
2017-Sep-17 01:00N 42°22' W 071°02'0 7.2
2017-Sep-17 01:00N 42°22' W 071°02'0 0.0
2017-Sep-17 00:30N 42°22' W 071°02'15117.7
2017-Sep-17 00:30N 42°21' W 071°01'511.0
2017-Sep-17 00:01N 42°22' W 070°54'61256.3
2017-Sep-17 00:00N 42°22' W 071°02'917.5
2017-Sep-16 23:30N 42°23' W 070°50'93139.5
2017-Sep-16 23:30N 42°22' W 071°02'816.8
2017-Sep-16 23:01N 42°23' W 070°51'85989.6
2017-Sep-16 23:00N 42°22' W 071°02'5 9.7
2017-Sep-16 22:30N 42°22' W 070°55'51950.7
2017-Sep-16 22:30N 42°22' W 071°02'0 0.0
2017-Sep-16 22:00N 42°22' W 071°02'31117.0
2017-Sep-16 22:00N 42°20' W 070°59'2 3.7
2017-Sep-16 21:30N 42°21' W 071°01'1519.4
2017-Sep-16 21:30N 42°22' W 071°02'0 0.0
2017-Sep-16 21:01N 42°22' W 071°02'0 2.4
2017-Sep-16 21:00N 42°22' W 071°02'0 0.0
2017-Sep-16 20:30N 42°22' W 071°02'0 2.0
2017-Sep-16 20:30N 42°22' W 071°02'0 0.0
2017-Sep-16 20:01N 42°22' W 071°02'0 9.3
2017-Sep-16 20:00N 42°22' W 071°02'0 0.0
2017-Sep-16 19:31N 42°22' W 071°02'0 9.3
2017-Sep-16 19:30N 42°22' W 071°02'0 0.0
2017-Sep-16 19:01N 42°22' W 071°02'0 9.3
2017-Sep-16 19:00N 42°22' W 071°02'0 0.0
2017-Sep-16 18:30N 42°22' W 071°02'0 7.2
2017-Sep-16 18:30N 42°22' W 071°02'  
Track history (hours):
 
Tides and Currents Weather Stations Pressure Air Temp Water Temp Dewpoint Dewpoint Depression Visibility Wind Speed Wind Dir Waves Ship Positions

Boston Pilot Mystic

Last reported at 2017-Sep-26 18:30 UTC. Time now 2017-Sep-26 18:32 UTC.
Position N 42°22' W 071°02'.

Length 16 m; draft 1.5 m.

Type: Pilot. MMSI: 367029020.

Date/timePositionNaut miles runAvg speedWind from/ knotsBaromVisibWave heightAir tempDewpointWater temp
2017-Sep-26 18:30N 42°22' W 071°02'67727.5
2017-Sep-26 18:30N 42°25' W 070°54'3 7.0
2017-Sep-26 18:00N 42°24' W 070°50'92221.3
2017-Sep-26 18:00N 42°22' W 071°02'4 8.4
2017-Sep-26 17:31N 42°21' W 070°56'4941.4
2017-Sep-26 17:30N 42°22' W 071°02'0 0.1
2017-Sep-26 17:00N 42°22' W 071°02'0154.5
2017-Sep-26 17:00N 42°22' W 071°02'0 0.0
2017-Sep-26 16:31N 42°22' W 071°02'0 4.5
2017-Sep-26 16:30N 42°22' W 071°02'0 0.0
2017-Sep-26 16:01N 42°22' W 071°02'0 1.0
2017-Sep-26 16:00N 42°22' W 071°02'0 0.0
2017-Sep-26 15:30N 42°22' W 071°02'2 3.8
2017-Sep-26 15:01N 42°21' W 070°60'21122.0
2017-Sep-26 15:00N 42°22' W 071°02'1 2.3
2017-Sep-26 14:30N 42°21' W 071°02'1 2.4
2017-Sep-26 14:00N 42°22' W 071°02'016.0
2017-Sep-26 14:00N 42°22' W 071°02'0 0.0
2017-Sep-26 13:31N 42°22' W 071°02'0 5.4
2017-Sep-26 13:30N 42°22' W 071°02'4 7.2
2017-Sep-26 13:01N 42°20' W 070°57'42158.1
2017-Sep-26 13:00N 42°22' W 071°02'917.2
2017-Sep-26 12:30N 42°23' W 070°50'96163.0
2017-Sep-26 12:30N 42°22' W 071°02'918.2
2017-Sep-26 12:00N 42°23' W 070°50'91492.1
2017-Sep-26 12:00N 42°22' W 071°02'4 8.9
2017-Sep-26 11:30N 42°21' W 070°56'415759.0
2017-Sep-26 11:30N 42°22' W 071°02'1 2.4
2017-Sep-26 11:00N 42°21' W 071°02'1328.6
2017-Sep-26 11:00N 42°22' W 071°02'1 2.4
2017-Sep-26 10:30N 42°21' W 071°02'12146.1
2017-Sep-26 10:30N 42°22' W 071°02'5 9.1
2017-Sep-26 10:00N 42°21' W 070°56'51263.2
2017-Sep-26 10:00N 42°22' W 071°02'0 0.0
2017-Sep-26 09:30N 42°22' W 071°02'5 9.6
2017-Sep-26 09:01N 42°22' W 070°55'5958.6
2017-Sep-26 09:00N 42°22' W 071°02'0 0.0
2017-Sep-26 08:30N 42°22' W 071°02'021.6
2017-Sep-26 08:30N 42°22' W 071°02'0 0.0
2017-Sep-26 08:00N 42°22' W 071°02'0 7.2
2017-Sep-26 08:00N 42°22' W 071°02'0 0.0
2017-Sep-26 07:30N 42°22' W 071°02'013.0
2017-Sep-26 07:30N 42°22' W 071°02'0 0.0
2017-Sep-26 07:00N 42°22' W 071°02'021.6
2017-Sep-26 07:00N 42°22' W 071°02'0 0.0
2017-Sep-26 06:30N 42°22' W 071°02'014.4
2017-Sep-26 06:30N 42°22' W 071°02'0 0.0
2017-Sep-26 06:00N 42°22' W 071°02'032.4
2017-Sep-26 06:00N 42°22' W 071°02'0 0.0
2017-Sep-26 05:30N 42°22' W 071°02'032.4
2017-Sep-26 05:30N 42°22' W 071°02'0 0.0
2017-Sep-26 05:00N 42°22' W 071°02'021.6
2017-Sep-26 05:00N 42°22' W 071°02'0 0.0
2017-Sep-26 04:30N 42°22' W 071°02'032.4
2017-Sep-26 04:30N 42°22' W 071°02'0 0.0
2017-Sep-26 04:00N 42°22' W 071°02'014.4
2017-Sep-26 04:00N 42°22' W 071°02'0 0.0
2017-Sep-26 03:30N 42°22' W 071°02'0 8.1
2017-Sep-26 03:30N 42°22' W 071°02'0 0.0
2017-Sep-26 03:00N 42°22' W 071°02'014.4
2017-Sep-26 03:00N 42°22' W 071°02'0 0.0
2017-Sep-26 02:27N 42°22' W 071°02'0 0.2
2017-Sep-26 02:21N 42°22' W 071°02'0 0.0
2017-Sep-26 02:00N 42°22' W 071°02'0 5.4
2017-Sep-26 02:00N 42°22' W 071°02'0 0.0
2017-Sep-26 01:30N 42°22' W 071°02'064.8
2017-Sep-26 01:30N 42°22' W 071°02'1 1.5
2017-Sep-26 01:01N 42°21' W 071°01'1534.9
2017-Sep-26 01:00N 42°22' W 071°02'0 0.0
2017-Sep-26 00:30N 42°22' W 071°02'547.7
2017-Sep-26 00:24N 42°22' W 070°55'410.5
2017-Sep-26 00:00N 42°21' W 071°01'12057.5
2017-Sep-26 00:00N 42°22' W 071°02'0 0.0
2017-Sep-25 23:30N 42°22' W 071°02'0 3.6
2017-Sep-25 23:30N 42°22' W 071°02'0 0.5
2017-Sep-25 23:01N 42°21' W 071°02'0134.0
2017-Sep-25 23:00N 42°22' W 071°02'5 9.7
2017-Sep-25 22:31N 42°21' W 070°55'51926.0
2017-Sep-25 22:30N 42°22' W 071°02'611.9
2017-Sep-25 22:00N 42°23' W 070°54'6892.7
2017-Sep-25 22:00N 42°22' W 071°02'5 9.4
2017-Sep-25 21:31N 42°22' W 070°56'51858.5
2017-Sep-25 21:30N 42°22' W 071°02'2 4.4
2017-Sep-25 21:01N 42°20' W 070°60'21133.5
2017-Sep-25 21:00N 42°22' W 071°02'0 0.0
2017-Sep-25 20:30N 42°22' W 071°02'013.4
2017-Sep-25 20:30N 42°22' W 071°02'0 0.0
2017-Sep-25 20:01N 42°22' W 071°02'0 3.8
2017-Sep-25 20:00N 42°22' W 071°02'1 1.1
2017-Sep-25 19:30N 42°21' W 071°02'1663.9
2017-Sep-25 19:30N 42°22' W 071°02'612.0
2017-Sep-25 19:00N 42°22' W 070°54'65392.7
2017-Sep-25 19:00N 42°22' W 071°02'4 8.8
2017-Sep-25 18:30N 42°21' W 070°56'43163.7
2017-Sep-25 18:30N 42°22' W 071°02'2 3.1
2017-Sep-25 18:00N 42°21' W 071°01'21378.4
2017-Sep-25 18:00N 42°22' W 071°02'0 0.0
2017-Sep-25 17:31N 42°22' W 071°02'0 2.9
2017-Sep-25 17:30N 42°22' W 071°02'0 0.0
2017-Sep-25 17:01N 42°22' W 071°02'0 1.2
2017-Sep-25 17:00N 42°22' W 071°02'0 0.0
2017-Sep-25 16:31N 42°22' W 071°02'0 9.3
2017-Sep-25 16:30N 42°22' W 071°02'0 0.0
2017-Sep-25 16:00N 42°22' W 071°02'1681.0
2017-Sep-25 16:00N 42°23' W 071°03'1 2.3
2017-Sep-25 15:31N 42°22' W 071°02'0262.5
2017-Sep-25 15:30N 42°21' W 071°02'0 0.7
2017-Sep-25 15:01N 42°22' W 071°02'85478.5
2017-Sep-25 15:00N 42°24' W 070°52'816.5
2017-Sep-25 14:31N 42°23' W 071°03'517716.1
2017-Sep-25 14:30N 42°20' W 070°57'2 3.7
2017-Sep-25 14:00N 42°21' W 070°60'2279.7
2017-Sep-25 14:00N 42°22' W 071°02'918.9
2017-Sep-25 13:30N 42°23' W 070°49'92397.3
2017-Sep-25 13:30N 42°22' W 071°02'1019.9
2017-Sep-25 13:00N 42°23' W 070°49'1035493.4
2017-Sep-25 13:00N 42°22' W 071°02'0 0.0
2017-Sep-25 12:31N 42°22' W 071°02'105073.2
2017-Sep-25 12:30N 42°23' W 070°49'0 0.6
2017-Sep-25 12:00N 42°23' W 070°49'1034946.5
2017-Sep-25 12:00N 42°22' W 071°02'816.5
2017-Sep-25 11:30N 42°20' W 070°51'84235.1
2017-Sep-25 11:30N 42°22' W 071°02'816.8
2017-Sep-25 11:01N 42°21' W 070°51'83760.7
2017-Sep-25 11:00N 42°22' W 071°02'918.1
2017-Sep-25 10:31N 42°24' W 070°50'94619.1
2017-Sep-25 10:30N 42°22' W 071°02'713.4
2017-Sep-25 10:01N 42°19' W 070°53'71202.7
2017-Sep-25 10:00N 42°22' W 071°02'0 0.0
2017-Sep-25 09:30N 42°22' W 071°02'8188.0
2017-Sep-25 09:28N 42°15' W 070°58'816.5
2017-Sep-25 09:01N 42°22' W 071°02'31320.7
2017-Sep-25 09:00N 42°20' W 070°60'2 3.0
2017-Sep-25 08:30N 42°20' W 070°58'36025.1
2017-Sep-25 08:30N 42°22' W 071°02'1020.3
2017-Sep-25 08:01N 42°24' W 070°49'104553.4
2017-Sep-25 08:00N 42°22' W 071°02'0 0.0
2017-Sep-25 07:31N 42°22' W 071°02'55615.0
2017-Sep-25 07:30N 42°21' W 070°56'5 9.3
2017-Sep-25 07:00N 42°22' W 071°02'0 8.1
2017-Sep-25 07:00N 42°22' W 071°02'0 0.0
2017-Sep-25 06:30N 42°22' W 071°02'0 1.3
2017-Sep-25 06:30N 42°22' W 071°02'0 0.0
2017-Sep-25 06:00N 42°22' W 071°02'021.6
2017-Sep-25 06:00N 42°22' W 071°02'3 5.1
2017-Sep-25 05:31N 42°20' W 070°59'3571.5
2017-Sep-25 05:30N 42°22' W 071°02'0 0.0
2017-Sep-25 05:01N 42°22' W 071°02'0 0.0
2017-Sep-25 04:30N 42°22' W 071°02'0 0.0
2017-Sep-25 04:00N 42°22' W 071°02'518519.8
2017-Sep-25 04:00N 42°22' W 070°55'4 8.7
2017-Sep-25 03:31N 42°20' W 071°00'2853.8
2017-Sep-25 03:30N 42°22' W 071°02'1 2.3
2017-Sep-25 03:00N 42°21' W 071°02'1 2.3
2017-Sep-25 02:30N 42°22' W 071°02'1 7.1
2017-Sep-25 02:21N 42°21' W 071°02'1 3.6
2017-Sep-25 02:01N 42°22' W 071°02'0 9.3
2017-Sep-25 02:00N 42°22' W 071°02'0 0.0
2017-Sep-25 01:31N 42°22' W 071°02'0 0.0
2017-Sep-25 01:01N 42°22' W 071°02'0 5.9
2017-Sep-25 01:00N 42°22' W 071°02'0 0.0
2017-Sep-25 00:31N 42°22' W 071°02'0 4.8
2017-Sep-25 00:30N 42°22' W 071°02'0 0.0
2017-Sep-25 00:01N 42°22' W 071°02'0 4.3
2017-Sep-25 00:00N 42°22' W 071°02'0 0.0
2017-Sep-24 23:31N 42°22' W 071°02'0 4.8
2017-Sep-24 23:30N 42°22' W 071°02'0 0.0
2017-Sep-24 23:01N 42°22' W 071°02'1 2.5
2017-Sep-24 22:30N 42°21' W 071°01'1447.7
2017-Sep-24 22:30N 42°22' W 071°02'1 2.8
2017-Sep-24 22:01N 42°21' W 071°01'1129.4
2017-Sep-24 22:00N 42°22' W 071°02'4 8.7
2017-Sep-24 21:30N 42°21' W 070°56'4904.4
2017-Sep-24 21:30N 42°22' W 071°02'611.3
2017-Sep-24 21:00N 42°23' W 070°54'64025.7
2017-Sep-24 21:00N 42°22' W 071°02'816.7
2017-Sep-24 20:31N 42°23' W 070°51'83313.4
2017-Sep-24 20:30N 42°22' W 071°02'3 6.4
2017-Sep-24 20:00N 42°20' W 070°58'31633.1
2017-Sep-24 20:00N 42°22' W 071°02'0 0.0
2017-Sep-24 19:30N 42°22' W 071°02'0 1.2
2017-Sep-24 19:30N 42°22' W 071°02'0 0.0
2017-Sep-24 19:00N 42°22' W 071°02'013.4
2017-Sep-24 19:00N 42°22' W 071°02'1 2.6
2017-Sep-24 18:30N 42°21' W 071°01'1171.0
2017-Sep-24 18:30N 42°22' W 071°02'1 2.5
2017-Sep-24 18:00N 42°21' W 071°01'1321.1
2017-Sep-24 18:00N 42°22' W 071°02'4 8.3
2017-Sep-24 17:30N 42°20' W 070°57'41480.3
2017-Sep-24 17:30N 42°22' W 071°02'815.5
2017-Sep-24 17:00N 42°23' W 070°52'82128.1
2017-Sep-24 17:00N 42°22' W 071°02'917.2
2017-Sep-24 16:31N 42°23' W 070°51'92557.8
2017-Sep-24 16:30N 42°22' W 071°02'0 0.0
2017-Sep-24 16:01N 42°22' W 071°02'11733.6
2017-Sep-24 16:00N 42°21' W 071°01'1 2.9
2017-Sep-24 15:31N 42°22' W 071°02'0 0.8
2017-Sep-24 15:30N 42°22' W 071°02'0 0.0
2017-Sep-24 15:00N 42°22' W 071°02'0 0.5
2017-Sep-24 14:59N 42°22' W 071°02'0 0.0
2017-Sep-24 14:30N 42°22' W 071°02'0 0.5
2017-Sep-24 14:29N 42°22' W 071°02'0 0.7
2017-Sep-24 14:00N 42°21' W 071°02'0196.2
2017-Sep-24 14:00N 42°22' W 071°02'612.9
2017-Sep-24 13:30N 42°22' W 070°53'65787.2
2017-Sep-24 13:30N 42°22' W 071°02'917.6
2017-Sep-24 13:00N 42°23' W 070°50'97909.7
2017-Sep-24 13:00N 42°22' W 071°02'2 4.8
2017-Sep-24 12:30N 42°20' W 070°59'2543.2
2017-Sep-24 12:30N 42°22' W 071°02'0 0.0
2017-Sep-24 12:01N 42°22' W 071°02'0 1.1
2017-Sep-24 12:00N 42°22' W 071°02'0 0.0
2017-Sep-24 11:30N 42°22' W 071°02'0 5.4
2017-Sep-24 11:30N 42°22' W 071°02'0 0.0
2017-Sep-24 11:00N 42°22' W 071°02'0 4.0
2017-Sep-24 11:00N 42°22' W 071°02'0 0.0
2017-Sep-24 10:31N 42°22' W 071°02'0 0.2
2017-Sep-24 10:28N 42°22' W 071°02'4 8.8
2017-Sep-24 10:01N 42°20' W 070°57'414254.3
2017-Sep-24 10:01N 42°22' W 071°02'0 0.0
2017-Sep-24 09:31N 42°22' W 071°02'95359.3
2017-Sep-24 09:30N 42°23' W 070°50'917.9
2017-Sep-24 09:01N 42°22' W 071°02'0 0.0
2017-Sep-24 08:30N 42°22' W 071°02'0 9.0
2017-Sep-24 08:30N 42°22' W 071°02'0 0.0
2017-Sep-24 08:00N 42°22' W 071°02'013.4
2017-Sep-24 08:00N 42°22' W 071°02'0 0.0
2017-Sep-24 07:30N 42°22' W 071°02'0 4.5
2017-Sep-24 07:30N 42°22' W 071°02'0 0.0
2017-Sep-24 07:00N 42°22' W 071°02'0 3.2
2017-Sep-24 07:00N 42°22' W 071°02'1 2.4
2017-Sep-24 06:30N 42°21' W 071°02'11061.7
2017-Sep-24 06:30N 42°22' W 071°02'612.2
2017-Sep-24 06:00N 42°22' W 070°54'61457.1
2017-Sep-24 06:00N 42°22' W 071°02'0 0.0
2017-Sep-24 05:31N 42°22' W 071°02'54158.5
2017-Sep-24 05:30N 42°22' W 070°56'4 7.7
2017-Sep-24 05:00N 42°21' W 071°01'2368.0
2017-Sep-24 05:00N 42°22' W 071°02'0 0.0
2017-Sep-24 04:30N 42°22' W 071°02'010.8
2017-Sep-24 04:30N 42°22' W 071°02'0 0.0
2017-Sep-24 04:00N 42°22' W 071°02'0 3.8
2017-Sep-24 04:00N 42°22' W 071°02'0 0.0
2017-Sep-24 03:30N 42°22' W 071°02'0 4.6
2017-Sep-24 03:30N 42°22' W 071°02'0 0.0
2017-Sep-24 03:00N 42°22' W 071°02'0 5.9
2017-Sep-24 03:00N 42°22' W 071°02'0 0.0
2017-Sep-24 02:30N 42°22' W 071°02'14299.3
2017-Sep-24 02:30N 42°21' W 071°02'713.4
2017-Sep-24 02:00N 42°23' W 070°53'74775.2
2017-Sep-24 02:00N 42°22' W 071°02'510.3
2017-Sep-24 01:31N 42°22' W 070°55'52296.5
2017-Sep-24 01:30N 42°22' W 071°02'612.1
2017-Sep-24 01:00N 42°23' W 070°54'63621.7
2017-Sep-24 01:00N 42°22' W 071°02'0 0.0
2017-Sep-24 00:31N 42°22' W 071°02'51149.8
2017-Sep-24 00:30N 42°22' W 070°55'4 8.3
2017-Sep-24 00:00N 42°20' W 070°60'21050.0
2017-Sep-24 00:00N 42°22' W 071°02'0 0.0
2017-Sep-23 23:30N 42°22' W 071°02'0 0.1
2017-Sep-23 23:23N 42°22' W 071°02'0 0.0
2017-Sep-23 23:01N 42°22' W 071°02'0 1.8
2017-Sep-23 23:00N 42°22' W 071°02'0 0.0
2017-Sep-23 22:30N 42°22' W 071°02'0 1.0
2017-Sep-23 22:30N 42°22' W 071°02'3 5.6
2017-Sep-23 22:00N 42°20' W 070°59'31965.6
2017-Sep-23 22:00N 42°22' W 071°02'0 0.0
2017-Sep-23 21:31N 42°22' W 071°02'98073.9
2017-Sep-23 21:30N 42°24' W 070°50'918.0
2017-Sep-23 21:01N 42°22' W 071°02'47793.5
2017-Sep-23 21:00N 42°21' W 070°56'4 7.9
2017-Sep-23 20:30N 42°21' W 071°02'1255.4
2017-Sep-23 20:30N 42°22' W 071°02'0 0.0
2017-Sep-23 20:00N 42°22' W 071°02'0 1.3
2017-Sep-23 20:00N 42°22' W 071°02'0 0.0
2017-Sep-22 02:01N 42°22' W 071°02'010.8
2017-Sep-22 02:00N 42°22' W 071°02'5 9.5
2017-Sep-22 01:31N 42°22' W 070°55'53403.2
2017-Sep-22 01:30N 42°22' W 071°02'612.4
2017-Sep-22 01:01N 42°23' W 070°54'63720.5
2017-Sep-22 01:00N 42°22' W 071°02'0 0.0
2017-Sep-22 00:30N 42°22' W 071°02'2444.9
2017-Sep-22 00:30N 42°20' W 071°01'2 3.2
2017-Sep-22 00:00N 42°22' W 071°02'0 0.2
2017-Sep-21 23:59N 42°22' W 071°02'0 0.0
2017-Sep-21 23:30N 42°22' W 071°02'0 0.8
2017-Sep-21 23:30N 42°22' W 071°02'5 9.5
2017-Sep-21 23:00N 42°21' W 070°56'52389.2
2017-Sep-21 23:00N 42°22' W 071°02'611.6
2017-Sep-21 22:30N 42°22' W 070°54'61479.7
2017-Sep-21 22:30N 42°22' W 071°02'2 3.0
2017-Sep-21 22:00N 42°21' W 071°01'2493.8
2017-Sep-21 22:00N 42°22' W 071°02'0 0.0
2017-Sep-21 21:30N 42°22' W 071°02'0 1.3
2017-Sep-21 21:30N 42°22' W 071°02'0 0.0
2017-Sep-21 21:00N 42°22' W 071°02'0 6.7
2017-Sep-21 21:00N 42°22' W 071°02'0 0.0
2017-Sep-21 20:30N 42°22' W 071°02'0 1.9
2017-Sep-21 20:30N 42°22' W 071°02'3 5.5
2017-Sep-21 20:00N 42°20' W 070°59'39805.7
2017-Sep-21 20:00N 42°22' W 071°02'816.2
2017-Sep-21 19:31N 42°24' W 070°52'85819.2
2017-Sep-21 19:30N 42°22' W 071°02'0 0.0
2017-Sep-21 19:00N 42°22' W 071°02'519277.7
2017-Sep-21 19:00N 42°22' W 070°55'5 9.7
2017-Sep-21 18:31N 42°21' W 071°01'11014.4
2017-Sep-21 18:30N 42°22' W 071°02'0 0.0
2017-Sep-21 18:00N 42°22' W 071°02'0 0.2
2017-Sep-21 17:59N 42°22' W 071°02'1 1.2
2017-Sep-21 17:31N 42°21' W 071°02'1390.8
2017-Sep-21 17:30N 42°22' W 071°02'511.0
2017-Sep-21 17:01N 42°22' W 070°55'51311.6
2017-Sep-21 17:00N 42°22' W 071°02'510.9
2017-Sep-21 16:31N 42°22' W 070°55'53248.8
2017-Sep-21 16:30N 42°22' W 071°02'2 5.0
2017-Sep-21 16:01N 42°20' W 070°60'3531.6
2017-Sep-21 16:00N 42°22' W 071°02'0 0.1
2017-Sep-21 15:30N 42°22' W 071°02'014.4
2017-Sep-21 15:30N 42°22' W 071°02'0 0.0
2017-Sep-21 15:00N 42°22' W 071°02'016.2
2017-Sep-21 15:00N 42°22' W 071°02'0 0.0
2017-Sep-21 14:30N 42°22' W 071°02'0 2.9
2017-Sep-21 14:30N 42°22' W 071°02'0 0.0
2017-Sep-21 14:00N 42°22' W 071°02'0 6.2
2017-Sep-21 14:00N 42°22' W 071°02'0 0.0
2017-Sep-21 13:30N 42°22' W 071°02'013.0
2017-Sep-21 13:30N 42°22' W 071°02'0 0.0
2017-Sep-21 13:00N 42°22' W 071°02'032.4
2017-Sep-21 13:00N 42°22' W 071°02'0 0.0
2017-Sep-21 12:31N 42°22' W 071°02'010.8
2017-Sep-21 12:30N 42°22' W 071°02'0 0.0
2017-Sep-21 12:00N 42°22' W 071°02'14320.3
2017-Sep-21 12:00N 42°21' W 071°02'5 9.4
2017-Sep-21 11:31N 42°21' W 070°56'5113.8
2017-Sep-21 11:28N 42°22' W 071°02'510.7
2017-Sep-21 11:00N 42°22' W 070°55'54430.0
2017-Sep-21 11:00N 42°22' W 071°02'918.0
2017-Sep-21 10:30N 42°24' W 070°50'92484.0
2017-Sep-21 10:30N 42°22' W 071°02'0 0.0
2017-Sep-21 10:00N 42°22' W 071°02'66672.6
2017-Sep-21 10:00N 42°22' W 070°54'4 9.0
2017-Sep-21 09:31N 42°21' W 070°60'21125.0
2017-Sep-21 09:30N 42°22' W 071°02'4 7.1
2017-Sep-21 09:01N 42°20' W 070°57'4852.8
2017-Sep-21 09:00N 42°22' W 071°02'917.3
2017-Sep-21 08:30N 42°23' W 070°51'97716.2
2017-Sep-21 08:30N 42°22' W 071°02'815.6
2017-Sep-21 08:01N 42°23' W 070°52'85583.4
2017-Sep-21 08:00N 42°22' W 071°02'4 8.8
2017-Sep-21 07:31N 42°21' W 070°56'43160.7
2017-Sep-21 07:30N 42°22' W 071°02'0 0.0
2017-Sep-21 07:00N 42°22' W 071°02'064.8
2017-Sep-21 07:00N 42°22' W 071°02'0 0.0
2017-Sep-21 06:30N 42°22' W 071°02'064.8
2017-Sep-21 06:30N 42°22' W 071°02'0 0.0
2017-Sep-21 06:00N 42°22' W 071°02'0 0.0
2017-Sep-21 05:30N 42°22' W 071°02'0 2.3
2017-Sep-21 05:30N 42°22' W 071°02'0 0.0
2017-Sep-21 05:00N 42°22' W 071°02'0 2.8
2017-Sep-21 05:00N 42°22' W 071°02'0 0.0
2017-Sep-21 04:30N 42°22' W 071°02'0 6.1
2017-Sep-21 04:30N 42°22' W 071°02'0 0.0
2017-Sep-21 04:00N 42°22' W 071°02'0 4.8
2017-Sep-21 04:00N 42°22' W 071°02'0 0.0
2017-Sep-21 03:30N 42°22' W 071°02'0 3.4
2017-Sep-21 03:30N 42°22' W 071°02'0 0.0
2017-Sep-21 03:00N 42°22' W 071°02'0 0.0
2017-Sep-21 02:30N 42°22' W 071°02'043.2
2017-Sep-21 02:30N 42°22' W 071°02'0 0.0
2017-Sep-21 02:00N 42°22' W 071°02'0 7.2
2017-Sep-21 02:00N 42°22' W 071°02'0 0.0
2017-Sep-21 01:30N 42°22' W 071°02'0 2.2
2017-Sep-21 01:30N 42°22' W 071°02'0 0.0
2017-Sep-21 01:00N 42°22' W 071°02'0 1.7
2017-Sep-21 01:00N 42°22' W 071°02'0 0.0
2017-Sep-21 00:30N 42°22' W 071°02'0 1.1
2017-Sep-21 00:30N 42°22' W 071°02'0 0.0
2017-Sep-21 00:00N 42°22' W 071°02'0 1.4
2017-Sep-21 00:00N 42°22' W 071°02'0 0.0
2017-Sep-20 23:30N 42°22' W 071°02'0 0.3
2017-Sep-20 23:28N 42°22' W 071°02'0 0.0
2017-Sep-20 23:00N 42°22' W 071°02'0 7.2
2017-Sep-20 23:00N 42°22' W 071°02'0 0.0
2017-Sep-20 22:30N 42°22' W 071°02'0 1.1
2017-Sep-20 22:29N 42°22' W 071°02'0 0.0
2017-Sep-20 22:00N 42°22' W 071°02'0 7.2
2017-Sep-20 22:00N 42°22' W 071°02'0 0.0
2017-Sep-20 21:30N 42°22' W 071°02'0 1.3
2017-Sep-20 21:30N 42°22' W 071°02'0 0.0
2017-Sep-20 21:00N 42°22' W 071°02'0 0.5
2017-Sep-20 20:59N 42°22' W 071°02'0 0.0
2017-Sep-20 20:30N 42°22' W 071°02'0 1.5
2017-Sep-20 20:30N 42°22' W 071°02'0 0.0
2017-Sep-20 20:00N 42°22' W 071°02'0 1.4
2017-Sep-20 20:00N 42°22' W 071°02'0 0.0
2017-Sep-20 19:30N 42°22' W 071°02'0 8.1
2017-Sep-20 19:30N 42°22' W 071°02'1 2.7
2017-Sep-20 19:00N 42°23' W 071°03'152.9
2017-Sep-20 18:59N 42°22' W 071°02'0 0.0
2017-Sep-20 18:30N 42°22' W 071°02'0 0.1
2017-Sep-20 18:28N 42°22' W 071°02'0 0.0
2017-Sep-20 18:00N 42°22' W 071°02'0 0.8
2017-Sep-20 18:00N 42°22' W 071°02'0 0.0
2017-Sep-20 17:30N 42°22' W 071°02'4 7.1
2017-Sep-20 17:01N 42°20' W 070°58'4709.0
2017-Sep-20 17:00N 42°22' W 071°02'816.4
2017-Sep-20 16:30N 42°24' W 070°51'84186.9
2017-Sep-20 16:30N 42°22' W 071°02'4 8.5
2017-Sep-20 16:00N 42°20' W 070°57'4459.0
2017-Sep-20 16:00N 42°22' W 071°02'4 7.2
2017-Sep-20 15:30N 42°20' W 070°58'42133.4
2017-Sep-20 15:30N 42°22' W 071°02'612.2
2017-Sep-20 15:00N 42°22' W 070°54'61681.0
2017-Sep-20 15:00N 42°22' W 071°02'5 4.8
2017-Sep-20 14:01N 42°22' W 070°55'52480.8
2017-Sep-20 14:00N 42°22' W 071°02'0 0.0
2017-Sep-20 13:30N 42°22' W 071°02'1120.0
2017-Sep-20 13:30N 42°21' W 071°02'0 0.4
2017-Sep-20 13:00N 42°21' W 071°02'1613.4
2017-Sep-20 13:00N 42°22' W 071°02'2 4.7
2017-Sep-20 12:31N 42°20' W 070°59'2462.9
2017-Sep-20 12:30N 42°22' W 071°02'815.8
2017-Sep-20 12:00N 42°24' W 070°52'8913.4
2017-Sep-20 12:00N 42°22' W 071°02'510.1
2017-Sep-20 11:30N 42°22' W 070°55'51624.6
2017-Sep-20 11:30N 42°22' W 071°02'0 0.0
2017-Sep-20 11:00N 42°22' W 071°02'0 8.1
2017-Sep-20 11:00N 42°22' W 071°02'0 0.0
2017-Sep-20 10:30N 42°22' W 071°02'0 3.1
2017-Sep-20 10:30N 42°22' W 071°02'0 0.0
2017-Sep-20 10:00N 42°22' W 071°02'0 5.1
2017-Sep-20 10:00N 42°22' W 071°02'0 0.0
2017-Sep-20 09:30N 42°22' W 071°02'064.8
2017-Sep-20 09:30N 42°22' W 071°02'0 0.0
2017-Sep-20 09:00N 42°22' W 071°02'0 8.1
2017-Sep-20 09:00N 42°22' W 071°02'0 0.0
2017-Sep-20 08:30N 42°22' W 071°02'0 6.7
2017-Sep-20 08:30N 42°22' W 071°02'0 0.0
2017-Sep-20 08:00N 42°22' W 071°02'0 7.4
2017-Sep-20 08:00N 42°22' W 071°02'0 0.0
2017-Sep-20 07:30N 42°22' W 071°02'0 6.5
2017-Sep-20 07:30N 42°22' W 071°02'0 0.0
2017-Sep-20 07:00N 42°22' W 071°02'032.4
2017-Sep-20 07:00N 42°22' W 071°02'0 0.0
2017-Sep-20 06:30N 42°22' W 071°02'0 3.9
2017-Sep-20 06:30N 42°22' W 071°02'0 0.0
2017-Sep-20 06:00N 42°22' W 071°02'0 2.2
2017-Sep-20 06:00N 42°22' W 071°02'0 0.0
2017-Sep-20 05:30N 42°22' W 071°02'021.6
2017-Sep-20 05:30N 42°22' W 071°02'0 0.0
2017-Sep-20 05:00N 42°22' W 071°02'0 1.5
2017-Sep-20 05:00N 42°22' W 071°02'3 5.2
2017-Sep-20 04:30N 42°20' W 070°59'3331.8
2017-Sep-20 04:30N 42°22' W 071°02'713.8
2017-Sep-20 04:00N 42°23' W 070°53'71879.6
2017-Sep-20 04:00N 42°22' W 071°02'0 0.0
2017-Sep-20 03:30N 42°22' W 071°02'251.3
2017-Sep-20 03:28N 42°20' W 071°00'1 3.3
2017-Sep-20 03:01N 42°21' W 071°02'1533.8
2017-Sep-20 03:00N 42°22' W 071°02'0 0.0
2017-Sep-20 02:30N 42°22' W 071°02'1237.2
2017-Sep-20 02:30N 42°21' W 071°02'3 6.7
2017-Sep-20 02:00N 42°20' W 070°58'31131.2
2017-Sep-20 02:00N 42°22' W 071°02'816.6
2017-Sep-20 01:30N 42°23' W 070°51'814843.0
2017-Sep-20 01:30N 42°22' W 071°02'4 8.6
2017-Sep-20 01:00N 42°21' W 070°56'41556.7
2017-Sep-20 01:00N 42°22' W 071°02'4 8.6
2017-Sep-20 00:31N 42°21' W 070°56'42178.3
2017-Sep-20 00:30N 42°22' W 071°02'612.4
2017-Sep-20 00:00N 42°23' W 070°54'6438.2
2017-Sep-20 00:00N 42°22' W 071°02'1019.7
2017-Sep-19 23:30N 42°24' W 070°49'108613.8
2017-Sep-19 23:30N 42°22' W 071°02'713.3
2017-Sep-19 23:01N 42°23' W 070°53'72973.5
2017-Sep-19 23:00N 42°22' W 071°02'3 6.9
2017-Sep-19 22:30N 42°20' W 070°58'31237.4
2017-Sep-19 22:30N 42°22' W 071°02'0 0.6
2017-Sep-19 22:00N 42°21' W 071°02'095.5
2017-Sep-19 22:00N 42°22' W 071°02'0 0.0
2017-Sep-19 21:30N 42°22' W 071°02'0 2.0
2017-Sep-19 21:30N 42°22' W 071°02'0 0.0
2017-Sep-19 21:00N 42°22' W 071°02'0 1.9
2017-Sep-19 21:00N 42°22' W 071°02'0 0.0
2017-Sep-19 20:30N 42°22' W 071°02'016.2
2017-Sep-19 20:30N 42°22' W 071°02'0 0.0
2017-Sep-19 20:01N 42°22' W 071°02'0 4.3
2017-Sep-19 20:00N 42°22' W 071°02'0 0.0
2017-Sep-19 19:31N 42°22' W 071°02'010.8
2017-Sep-19 19:30N 42°22' W 071°02'0 0.0
2017-Sep-19 19:00N 42°22' W 071°02'0 1.8
2017-Sep-19 19:00N 42°22' W 071°02'0 0.0
2017-Sep-19 18:31N 42°22' W 071°02'0 2.2
2017-Sep-19 18:30N 42°22' W 071°02'0 0.0
2017-Sep-19 18:00N 42°22' W 071°02'016.2
2017-Sep-19 18:00N 42°22' W 071°02'0 0.0
2017-Sep-19 17:31N 42°22' W 071°02'0 2.3
2017-Sep-19 17:30N 42°22' W 071°02'0 0.0
2017-Sep-19 17:01N 42°22' W 071°02'013.0
2017-Sep-19 17:00N 42°22' W 071°02'0 0.0
2017-Sep-19 16:30N 42°22' W 071°02'0 5.4
2017-Sep-19 16:30N 42°22' W 071°02'0 0.0
2017-Sep-19 16:00N 42°22' W 071°02'1275.2
2017-Sep-19 16:00N 42°21' W 071°01'1 2.6
2017-Sep-19 15:30N 42°22' W 071°02'161.8
2017-Sep-19 15:29N 42°21' W 071°02'1 2.5
2017-Sep-19 15:00N 42°22' W 071°02'115.3
2017-Sep-19 14:56N 42°21' W 071°02'3 8.3
2017-Sep-19 14:31N 42°20' W 070°57'42022.5
2017-Sep-19 14:30N 42°22' W 071°02'0 0.0
2017-Sep-19 14:00N 42°22' W 071°02'94522.8
2017-Sep-19 14:00N 42°24' W 070°50'1 1.1
2017-Sep-19 13:31N 42°24' W 070°49'92102.2
2017-Sep-19 13:30N 42°22' W 071°02'0 0.0
2017-Sep-19 13:00N 42°22' W 071°02'71711.7
2017-Sep-19 13:00N 42°23' W 070°52'611.8
2017-Sep-19 12:30N 42°20' W 070°59'2538.3
2017-Sep-19 12:30N 42°22' W 071°02'0 0.0
2017-Sep-19 12:00N 42°22' W 071°02'0 8.0
2017-Sep-19 12:00N 42°22' W 071°02'1 2.7
2017-Sep-19 11:30N 42°23' W 071°03'1963.8
2017-Sep-19 11:30N 42°22' W 071°02'2 3.0
2017-Sep-19 11:00N 42°21' W 071°00'21089.6
2017-Sep-19 11:00N 42°22' W 071°02'917.7
2017-Sep-19 10:31N 42°24' W 070°50'95275.8
2017-Sep-19 10:30N 42°22' W 071°02'5 9.1
2017-Sep-19 10:00N 42°21' W 070°56'51362.6
2017-Sep-19 10:00N 42°22' W 071°02'0 0.0
2017-Sep-19 09:30N 42°22' W 071°02'032.4
2017-Sep-19 09:30N 42°22' W 071°02'0 0.0
2017-Sep-19 09:00N 42°22' W 071°02'0 0.0
2017-Sep-19 08:30N 42°22' W 071°02'0 0.0
2017-Sep-19 08:00N 42°22' W 071°02'033.4
2017-Sep-19 08:00N 42°22' W 071°02'0 0.0
2017-Sep-19 07:30N 42°22' W 071°02'0 0.0
2017-Sep-19 07:00N 42°22' W 071°02'0 2.2
2017-Sep-19 07:00N 42°22' W 071°02'0 0.0
2017-Sep-19 06:30N 42°22' W 071°02'0 0.0
2017-Sep-19 06:00N 42°22' W 071°02'064.8
2017-Sep-19 06:00N 42°22' W 071°02'0 0.0
2017-Sep-19 05:30N 42°22' W 071°02'0 8.1
2017-Sep-19 05:30N 42°22' W 071°02'0 0.0
2017-Sep-19 05:00N 42°22' W 071°02'032.4
2017-Sep-19 05:00N 42°22' W 071°02'0 0.0
2017-Sep-19 04:30N 42°22' W 071°02'032.4
2017-Sep-19 04:30N 42°22' W 071°02'0 0.0
2017-Sep-19 04:00N 42°22' W 071°02'032.4
2017-Sep-19 04:00N 42°22' W 071°02'0 0.0
2017-Sep-19 03:30N 42°22' W 071°02'032.4
2017-Sep-19 03:30N 42°22' W 071°02'0 0.0
2017-Sep-19 03:00N 42°22' W 071°02'064.8
2017-Sep-19 03:00N 42°22' W 071°02'0 0.0
2017-Sep-19 02:30N 42°22' W 071°02'064.8
2017-Sep-19 02:30N 42°22' W 071°02'0 0.0
2017-Sep-19 02:00N 42°22' W 071°02'064.8
2017-Sep-19 02:00N 42°22' W 071°02'0 0.0
2017-Sep-19 01:30N 42°22' W 071°02'032.4
2017-Sep-19 01:30N 42°22' W 071°02'0 0.0
2017-Sep-19 01:00N 42°22' W 071°02'0 7.2
2017-Sep-19 01:00N 42°22' W 071°02'0 0.0
2017-Sep-19 00:30N 42°22' W 071°02'0 0.0
2017-Sep-19 00:00N 42°22' W 071°02'043.2
2017-Sep-19 00:00N 42°22' W 071°02'0 0.0
2017-Sep-18 23:30N 42°22' W 071°02'064.8
2017-Sep-18 23:30N 42°22' W 071°02'0 0.0
2017-Sep-18 23:00N 42°22' W 071°02'1610.2
2017-Sep-18 23:00N 42°23' W 071°03'3 5.3
2017-Sep-18 22:31N 42°21' W 071°01'1923.2
2017-Sep-18 22:30N 42°22' W 071°02'510.9
2017-Sep-18 22:00N 42°23' W 070°55'54872.1
2017-Sep-18 22:00N 42°22' W 071°02'0 0.0
2017-Sep-18 21:30N 42°22' W 071°02'62938.2
2017-Sep-18 21:30N 42°23' W 070°54'0 0.1
2017-Sep-18 21:01N 42°23' W 070°54'620675.2
2017-Sep-18 21:01N 42°22' W 071°02'611.7
2017-Sep-18 20:30N 42°23' W 070°54'67046.7
2017-Sep-18 20:30N 42°22' W 071°02'714.4
2017-Sep-18 20:00N 42°23' W 070°52'74321.0
2017-Sep-18 20:00N 42°22' W 071°02'3 5.6
2017-Sep-18 19:31N 42°20' W 070°59'3629.1
2017-Sep-18 19:30N 42°22' W 071°02'0 0.0
2017-Sep-18 19:00N 42°22' W 071°02'0 0.5
2017-Sep-18 19:00N 42°22' W 071°02'4 7.4
2017-Sep-18 18:31N 42°20' W 070°57'4816.8
2017-Sep-18 18:30N 42°22' W 071°02'816.9
2017-Sep-18 18:01N 42°21' W 070°51'83759.5
2017-Sep-18 18:00N 42°22' W 071°02'0 0.0
2017-Sep-18 17:30N 42°22' W 071°02'620454.4
2017-Sep-18 17:30N 42°19' W 070°55'2 4.0
2017-Sep-18 17:01N 42°20' W 070°57'42244.0
2017-Sep-18 17:00N 42°22' W 071°02'2 4.7
2017-Sep-18 16:31N 42°20' W 070°59'21201.6
2017-Sep-18 16:30N 42°22' W 071°02'510.2
2017-Sep-18 16:00N 42°22' W 070°55'53060.7
2017-Sep-18 16:00N 42°22' W 071°02'3 7.0
2017-Sep-18 15:31N 42°20' W 070°58'31785.8
2017-Sep-18 15:30N 42°22' W 071°02'0 0.0
2017-Sep-18 15:00N 42°22' W 071°02'0 2.1
2017-Sep-18 15:00N 42°22' W 071°02'0 0.0
2017-Sep-18 14:31N 42°22' W 071°02'0 0.0
2017-Sep-18 14:30N 42°22' W 071°02'0 0.0
2017-Sep-18 14:00N 42°22' W 071°02'518673.3
2017-Sep-18 14:00N 42°22' W 070°55'510.4
2017-Sep-18 13:30N 42°22' W 071°02'52903.8
2017-Sep-18 13:30N 42°22' W 070°55'4 7.1
2017-Sep-18 13:00N 42°20' W 070°59'3720.9
2017-Sep-18 13:00N 42°22' W 071°02'0 0.0
2017-Sep-18 12:30N 42°22' W 071°02'0 3.2
2017-Sep-18 12:30N 42°22' W 071°02'0 0.0
2017-Sep-18 12:00N 42°22' W 071°02'0 0.0
2017-Sep-18 12:00N 42°22' W 071°02'0 0.0
2017-Sep-18 11:30N 42°22' W 071°02'0 0.4
2017-Sep-18 11:30N 42°22' W 071°02'5 9.9
2017-Sep-18 11:01N 42°22' W 070°55'52480.8
2017-Sep-18 11:00N 42°22' W 071°02'715.0
2017-Sep-18 10:30N 42°23' W 070°52'713481.3
2017-Sep-18 10:30N 42°22' W 071°02'611.5
2017-Sep-18 10:01N 42°22' W 070°54'62950.6
2017-Sep-18 10:00N 42°22' W 071°02'0 0.9
2017-Sep-18 09:31N 42°21' W 071°02'0280.0
2017-Sep-18 09:30N 42°22' W 071°02'0 0.0
2017-Sep-18 09:01N 42°22' W 071°02'0 2.3
2017-Sep-18 09:00N 42°22' W 071°02'0 0.0
2017-Sep-18 08:30N 42°22' W 071°02'0 0.0
2017-Sep-18 08:30N 42°22' W 071°02'0 0.0
2017-Sep-18 08:00N 42°22' W 071°02'0 0.0
2017-Sep-18 08:00N 42°22' W 071°02'1 2.4
2017-Sep-18 07:30N 42°21' W 071°01'1850.7
2017-Sep-18 07:30N 42°22' W 071°02'0 0.0
2017-Sep-18 07:01N 42°22' W 071°02'0 1.7
2017-Sep-18 07:00N 42°22' W 071°02'0 0.0
2017-Sep-18 06:31N 42°22' W 071°02'0 9.3
2017-Sep-18 06:30N 42°22' W 071°02'0 0.0
2017-Sep-18 06:01N 42°22' W 071°02'0 7.2
2017-Sep-18 06:00N 42°22' W 071°02'0 0.0
2017-Sep-18 05:31N 42°22' W 071°02'0 5.4
2017-Sep-18 05:30N 42°22' W 071°02'0 0.0
2017-Sep-18 05:01N 42°22' W 071°02'0 6.2
2017-Sep-18 05:00N 42°22' W 071°02'0 0.0
2017-Sep-18 04:30N 42°22' W 071°02'0 1.8
2017-Sep-18 04:30N 42°22' W 071°02'0 0.0
2017-Sep-18 04:00N 42°22' W 071°02'0 4.1
2017-Sep-18 04:00N 42°22' W 071°02'0 0.0
2017-Sep-18 03:31N 42°22' W 071°02'0 9.5
2017-Sep-18 03:30N 42°22' W 071°02'0 0.0
2017-Sep-18 03:01N 42°22' W 071°02'0 9.3
2017-Sep-18 03:00N 42°22' W 071°02'0 0.0
2017-Sep-18 02:30N 42°22' W 071°02'0 2.0
2017-Sep-18 02:30N 42°22' W 071°02'0 0.0
2017-Sep-18 02:01N 42°22' W 071°02'010.8
2017-Sep-18 02:00N 42°22' W 071°02'0 0.0
2017-Sep-18 01:31N 42°22' W 071°02'0 9.3
2017-Sep-18 01:30N 42°22' W 071°02'0 0.0
2017-Sep-18 01:01N 42°22' W 071°02'0 6.2
2017-Sep-18 01:00N 42°22' W 071°02'0 0.0
2017-Sep-18 00:31N 42°22' W 071°02'0 3.8
2017-Sep-18 00:30N 42°22' W 071°02'0 0.0
2017-Sep-18 00:00N 42°22' W 071°02'0 6.2
2017-Sep-18 00:00N 42°22' W 071°02'2 3.1
2017-Sep-17 23:30N 42°21' W 071°01'2456.5
2017-Sep-17 23:30N 42°22' W 071°02'0 0.0
2017-Sep-17 23:00N 42°22' W 071°02'545.3
2017-Sep-17 22:54N 42°22' W 070°56'511.6
2017-Sep-17 22:30N 42°22' W 071°02'360.3
2017-Sep-17 22:28N 42°20' W 070°59'2 5.2
2017-Sep-17 22:00N 42°21' W 071°02'1885.7
2017-Sep-17 22:00N 42°22' W 071°02'4 8.7
2017-Sep-17 21:31N 42°21' W 070°56'42239.3
2017-Sep-17 21:30N 42°22' W 071°02'0 0.0
2017-Sep-17 21:00N 42°22' W 071°02'4946.3
2017-Sep-17 21:00N 42°21' W 070°56'3 6.9
2017-Sep-17 20:31N 42°21' W 071°01'1628.2
2017-Sep-17 20:30N 42°22' W 071°02'1 2.4
2017-Sep-17 20:00N 42°21' W 071°02'11072.9
2017-Sep-17 20:00N 42°22' W 071°02'1 2.4
2017-Sep-17 19:30N 42°21' W 071°02'1863.1
2017-Sep-17 19:30N 42°22' W 071°02'1 2.4
2017-Sep-17 19:00N 42°21' W 071°02'1878.1
2017-Sep-17 19:00N 42°22' W 071°02'3 6.1
2017-Sep-17 18:31N 42°20' W 070°58'31824.9
2017-Sep-17 18:30N 42°22' W 071°02'1 2.2
2017-Sep-17 18:01N 42°21' W 071°01'1497.7
2017-Sep-17 18:00N 42°22' W 071°02'0 0.0
2017-Sep-17 17:30N 42°22' W 071°02'41559.2
2017-Sep-17 17:30N 42°20' W 070°57'4 7.8
2017-Sep-17 17:00N 42°22' W 071°02'53191.9
2017-Sep-17 17:00N 42°22' W 070°55'3 6.6
2017-Sep-17 16:31N 42°20' W 070°58'31721.2
2017-Sep-17 16:30N 42°22' W 071°02'1 2.8
2017-Sep-17 16:00N 42°21' W 071°01'11657.8
2017-Sep-17 16:00N 42°22' W 071°02'0 0.7
2017-Sep-17 15:30N 42°22' W 071°02'0 0.6
2017-Sep-17 15:00N 42°22' W 071°02'021.6
2017-Sep-17 15:00N 42°22' W 071°02'0 0.0
2017-Sep-17 14:30N 42°22' W 071°02'0 3.2
2017-Sep-17 14:30N 42°22' W 071°02'0 0.0
2017-Sep-17 14:00N 42°22' W 071°02'0 8.1
2017-Sep-17 14:00N 42°22' W 071°02'0 0.0
2017-Sep-17 13:30N 42°22' W 071°02'0 5.9
2017-Sep-17 13:30N 42°22' W 071°02'0 0.0
2017-Sep-17 13:00N 42°22' W 071°02'0 3.2
2017-Sep-17 13:00N 42°22' W 071°02'0 0.0
2017-Sep-17 12:30N 42°22' W 071°02'0 0.0
2017-Sep-17 12:00N 42°22' W 071°02'066.7
2017-Sep-17 12:00N 42°22' W 071°02'0 0.0
2017-Sep-17 11:30N 42°22' W 071°02'0 5.9
2017-Sep-17 11:30N 42°22' W 071°02'0 0.0
2017-Sep-17 11:00N 42°22' W 071°02'12336.7
2017-Sep-17 11:00N 42°21' W 071°02'4 7.5
2017-Sep-17 10:30N 42°21' W 070°57'41498.3
2017-Sep-17 10:30N 42°22' W 071°02'917.9
2017-Sep-17 10:01N 42°24' W 070°50'94552.0
2017-Sep-17 10:00N 42°22' W 071°02'1019.3
2017-Sep-17 09:30N 42°24' W 070°49'108648.6
2017-Sep-17 09:30N 42°22' W 071°02'4 8.7
2017-Sep-17 09:00N 42°21' W 070°56'415595.4
2017-Sep-17 09:00N 42°22' W 071°02'0 0.0
2017-Sep-17 08:30N 42°22' W 071°02'0108.4
2017-Sep-17 08:30N 42°21' W 071°02'0 0.7
2017-Sep-17 08:00N 42°22' W 071°02'022.2
2017-Sep-17 08:00N 42°22' W 071°02'0 0.0
2017-Sep-17 07:30N 42°22' W 071°02'021.6
2017-Sep-17 07:30N 42°22' W 071°02'0 0.0
2017-Sep-17 07:00N 42°22' W 071°02'0 5.0
2017-Sep-17 07:00N 42°22' W 071°02'0 0.0
2017-Sep-17 06:30N 42°22' W 071°02'016.2
2017-Sep-17 06:30N 42°22' W 071°02'0 0.0
2017-Sep-17 06:00N 42°22' W 071°02'013.3
2017-Sep-17 06:00N 42°22' W 071°02'0 0.0
2017-Sep-17 05:30N 42°22' W 071°02'0 2.7
2017-Sep-17 05:30N 42°22' W 071°02'0 0.0
2017-Sep-17 05:00N 42°22' W 071°02'0 4.8
2017-Sep-17 05:00N 42°22' W 071°02'0 0.0
2017-Sep-17 04:31N 42°22' W 071°02'0 3.1
2017-Sep-17 04:30N 42°22' W 071°02'0 0.0
2017-Sep-17 04:00N 42°22' W 071°02'010.8
2017-Sep-17 04:00N 42°22' W 071°02'0 0.0
2017-Sep-17 03:30N 42°22' W 071°02'013.0
2017-Sep-17 03:30N 42°22' W 071°02'0 0.0
2017-Sep-17 03:00N 42°22' W 071°02'013.0
2017-Sep-17 03:00N 42°22' W 071°02'0 0.0
2017-Sep-17 02:30N 42°22' W 071°02'013.0
2017-Sep-17 02:30N 42°22' W 071°02'0 0.0
2017-Sep-17 02:01N 42°22' W 071°02'0 1.8
2017-Sep-17 02:00N 42°22' W 071°02'0 0.0
2017-Sep-17 01:31N 42°22' W 071°02'0 4.1
2017-Sep-17 01:30N 42°22' W 071°02'0 0.0
2017-Sep-17 01:00N 42°22' W 071°02'0 7.2
2017-Sep-17 01:00N 42°22' W 071°02'0 0.0
2017-Sep-17 00:30N 42°22' W 071°02'15117.7
2017-Sep-17 00:30N 42°21' W 071°01'511.0
2017-Sep-17 00:01N 42°22' W 070°54'61256.3
2017-Sep-17 00:00N 42°22' W 071°02'917.5
2017-Sep-16 23:30N 42°23' W 070°50'93139.5
2017-Sep-16 23:30N 42°22' W 071°02'816.8
2017-Sep-16 23:01N 42°23' W 070°51'85989.6
2017-Sep-16 23:00N 42°22' W 071°02'5 9.7
2017-Sep-16 22:30N 42°22' W 070°55'51950.7
2017-Sep-16 22:30N 42°22' W 071°02'0 0.0
2017-Sep-16 22:00N 42°22' W 071°02'31117.0
2017-Sep-16 22:00N 42°20' W 070°59'2 3.7
2017-Sep-16 21:30N 42°21' W 071°01'1519.4
2017-Sep-16 21:30N 42°22' W 071°02'0 0.0
2017-Sep-16 21:01N 42°22' W 071°02'0 2.4
2017-Sep-16 21:00N 42°22' W 071°02'0 0.0
2017-Sep-16 20:30N 42°22' W 071°02'0 2.0
2017-Sep-16 20:30N 42°22' W 071°02'0 0.0
2017-Sep-16 20:01N 42°22' W 071°02'0 9.3
2017-Sep-16 20:00N 42°22' W 071°02'0 0.0
2017-Sep-16 19:31N 42°22' W 071°02'0 9.3
2017-Sep-16 19:30N 42°22' W 071°02'0 0.0
2017-Sep-16 19:01N 42°22' W 071°02'0 9.3
2017-Sep-16 19:00N 42°22' W 071°02'0 0.0
2017-Sep-16 18:30N 42°22' W 071°02'0 7.2
2017-Sep-16 18:30N 42°22' W 071°02'  

Dump ship's entire track history